<?xml version="1.0" encoding="UTF-8" standalone="no" ?>
<gpx xmlns="http://www.topografix.com/GPX/1/1" xmlns:xsi="http://www.w3.org/2001/XMLSchema-instance" xsi:schemaLocation="http://www.topografix.com/GPX/1/1 http://www.topografix.com/GPX/1/1/gpx.xsd" version="1.1" creator="VisuGPX - https://www.visugpx.com">
  <metadata>
    <name>Tracé actuel: 07 AOU 2022 15:46</name>
  </metadata>
  <trk>
    <name><![CDATA[Tracé actuel: 07 AOU 2022 15:46]]></name>
    <trkseg>
      <trkpt lat="44.86481" lon="1.30046">
        <ele>140.49</ele>
        <time>2022-08-07T13:46:32Z</time>
      </trkpt>
      <trkpt lat="44.86472" lon="1.30045">
        <ele>136.16</ele>
        <time>2022-08-07T13:46:42Z</time>
      </trkpt>
      <trkpt lat="44.86466" lon="1.30033">
        <ele>135.68</ele>
        <time>2022-08-07T13:46:49Z</time>
      </trkpt>
      <trkpt lat="44.86453" lon="1.29996">
        <ele>136.64</ele>
        <time>2022-08-07T13:46:58Z</time>
      </trkpt>
      <trkpt lat="44.8645" lon="1.29961">
        <ele>134.72</ele>
        <time>2022-08-07T13:47:05Z</time>
      </trkpt>
      <trkpt lat="44.86453" lon="1.29956">
        <ele>134.72</ele>
        <time>2022-08-07T13:47:06Z</time>
      </trkpt>
      <trkpt lat="44.86455" lon="1.29951">
        <ele>134.72</ele>
        <time>2022-08-07T13:47:07Z</time>
      </trkpt>
      <trkpt lat="44.86457" lon="1.29946">
        <ele>134.72</ele>
        <time>2022-08-07T13:47:08Z</time>
      </trkpt>
      <trkpt lat="44.86459" lon="1.2994">
        <ele>134.24</ele>
        <time>2022-08-07T13:47:09Z</time>
      </trkpt>
      <trkpt lat="44.8646" lon="1.29934">
        <ele>133.76</ele>
        <time>2022-08-07T13:47:10Z</time>
      </trkpt>
      <trkpt lat="44.86461" lon="1.29928">
        <ele>133.28</ele>
        <time>2022-08-07T13:47:11Z</time>
      </trkpt>
      <trkpt lat="44.86461" lon="1.29921">
        <ele>133.28</ele>
        <time>2022-08-07T13:47:12Z</time>
      </trkpt>
      <trkpt lat="44.86461" lon="1.29915">
        <ele>133.28</ele>
        <time>2022-08-07T13:47:13Z</time>
      </trkpt>
      <trkpt lat="44.86459" lon="1.29909">
        <ele>133.28</ele>
        <time>2022-08-07T13:47:14Z</time>
      </trkpt>
      <trkpt lat="44.86457" lon="1.29904">
        <ele>132.8</ele>
        <time>2022-08-07T13:47:15Z</time>
      </trkpt>
      <trkpt lat="44.86454" lon="1.29899">
        <ele>133.28</ele>
        <time>2022-08-07T13:47:16Z</time>
      </trkpt>
      <trkpt lat="44.86452" lon="1.29894">
        <ele>133.28</ele>
        <time>2022-08-07T13:47:17Z</time>
      </trkpt>
      <trkpt lat="44.8645" lon="1.29889">
        <ele>133.28</ele>
        <time>2022-08-07T13:47:18Z</time>
      </trkpt>
      <trkpt lat="44.86424" lon="1.29838">
        <ele>135.68</ele>
        <time>2022-08-07T13:47:32Z</time>
      </trkpt>
      <trkpt lat="44.86395" lon="1.29783">
        <ele>138.09</ele>
        <time>2022-08-07T13:47:48Z</time>
      </trkpt>
      <trkpt lat="44.86377" lon="1.29727">
        <ele>128.95</ele>
        <time>2022-08-07T13:47:59Z</time>
      </trkpt>
      <trkpt lat="44.86373" lon="1.29725">
        <ele>127.99</ele>
        <time>2022-08-07T13:48:00Z</time>
      </trkpt>
      <trkpt lat="44.86369" lon="1.29726">
        <ele>127.03</ele>
        <time>2022-08-07T13:48:01Z</time>
      </trkpt>
      <trkpt lat="44.86366" lon="1.29728">
        <ele>126.07</ele>
        <time>2022-08-07T13:48:02Z</time>
      </trkpt>
      <trkpt lat="44.86363" lon="1.29729">
        <ele>125.59</ele>
        <time>2022-08-07T13:48:03Z</time>
      </trkpt>
      <trkpt lat="44.86358" lon="1.29734">
        <ele>119.34</ele>
        <time>2022-08-07T13:48:13Z</time>
      </trkpt>
      <trkpt lat="44.86357" lon="1.29734">
        <ele>117.9</ele>
        <time>2022-08-07T13:48:16Z</time>
      </trkpt>
      <trkpt lat="44.86355" lon="1.29734">
        <ele>117.9</ele>
        <time>2022-08-07T13:48:17Z</time>
      </trkpt>
      <trkpt lat="44.86349" lon="1.29738">
        <ele>117.42</ele>
        <time>2022-08-07T13:48:19Z</time>
      </trkpt>
      <trkpt lat="44.86339" lon="1.2974">
        <ele>116.46</ele>
        <time>2022-08-07T13:48:21Z</time>
      </trkpt>
      <trkpt lat="44.86335" lon="1.29738">
        <ele>115.98</ele>
        <time>2022-08-07T13:48:22Z</time>
      </trkpt>
      <trkpt lat="44.86331" lon="1.29734">
        <ele>115.01</ele>
        <time>2022-08-07T13:48:23Z</time>
      </trkpt>
      <trkpt lat="44.86328" lon="1.29726">
        <ele>115.01</ele>
        <time>2022-08-07T13:48:24Z</time>
      </trkpt>
      <trkpt lat="44.86326" lon="1.2972">
        <ele>114.05</ele>
        <time>2022-08-07T13:48:25Z</time>
      </trkpt>
      <trkpt lat="44.86288" lon="1.29605">
        <ele>109.73</ele>
        <time>2022-08-07T13:48:39Z</time>
      </trkpt>
      <trkpt lat="44.86276" lon="1.29551">
        <ele>110.21</ele>
        <time>2022-08-07T13:48:47Z</time>
      </trkpt>
      <trkpt lat="44.86276" lon="1.29546">
        <ele>110.69</ele>
        <time>2022-08-07T13:48:48Z</time>
      </trkpt>
      <trkpt lat="44.86273" lon="1.29511">
        <ele>112.61</ele>
        <time>2022-08-07T13:48:56Z</time>
      </trkpt>
      <trkpt lat="44.86249" lon="1.29508">
        <ele>112.13</ele>
        <time>2022-08-07T13:49:04Z</time>
      </trkpt>
      <trkpt lat="44.86245" lon="1.2951">
        <ele>112.13</ele>
        <time>2022-08-07T13:49:05Z</time>
      </trkpt>
      <trkpt lat="44.86168" lon="1.29548">
        <ele>110.21</ele>
        <time>2022-08-07T13:49:21Z</time>
      </trkpt>
      <trkpt lat="44.8605" lon="1.29608">
        <ele>108.77</ele>
        <time>2022-08-07T13:49:42Z</time>
      </trkpt>
      <trkpt lat="44.85951" lon="1.29687">
        <ele>108.29</ele>
        <time>2022-08-07T13:50:00Z</time>
      </trkpt>
      <trkpt lat="44.85866" lon="1.2977">
        <ele>106.84</ele>
        <time>2022-08-07T13:50:17Z</time>
      </trkpt>
      <trkpt lat="44.85755" lon="1.2988">
        <ele>105.4</ele>
        <time>2022-08-07T13:50:38Z</time>
      </trkpt>
      <trkpt lat="44.85629" lon="1.30003">
        <ele>105.4</ele>
        <time>2022-08-07T13:51:02Z</time>
      </trkpt>
      <trkpt lat="44.85521" lon="1.3011">
        <ele>104.92</ele>
        <time>2022-08-07T13:51:23Z</time>
      </trkpt>
      <trkpt lat="44.85424" lon="1.30205">
        <ele>103.96</ele>
        <time>2022-08-07T13:51:41Z</time>
      </trkpt>
      <trkpt lat="44.85322" lon="1.30319">
        <ele>101.56</ele>
        <time>2022-08-07T13:52:00Z</time>
      </trkpt>
      <trkpt lat="44.85298" lon="1.30379">
        <ele>100.6</ele>
        <time>2022-08-07T13:52:07Z</time>
      </trkpt>
      <trkpt lat="44.85296" lon="1.30389">
        <ele>100.6</ele>
        <time>2022-08-07T13:52:08Z</time>
      </trkpt>
      <trkpt lat="44.85293" lon="1.30409">
        <ele>100.11</ele>
        <time>2022-08-07T13:52:10Z</time>
      </trkpt>
      <trkpt lat="44.85291" lon="1.30431">
        <ele>100.11</ele>
        <time>2022-08-07T13:52:12Z</time>
      </trkpt>
      <trkpt lat="44.85303" lon="1.30587">
        <ele>97.71</ele>
        <time>2022-08-07T13:52:26Z</time>
      </trkpt>
      <trkpt lat="44.85293" lon="1.30674">
        <ele>96.75</ele>
        <time>2022-08-07T13:52:34Z</time>
      </trkpt>
      <trkpt lat="44.85237" lon="1.30776">
        <ele>94.83</ele>
        <time>2022-08-07T13:52:46Z</time>
      </trkpt>
      <trkpt lat="44.85151" lon="1.30828">
        <ele>92.42</ele>
        <time>2022-08-07T13:52:58Z</time>
      </trkpt>
      <trkpt lat="44.84977" lon="1.30906">
        <ele>87.62</ele>
        <time>2022-08-07T13:53:21Z</time>
      </trkpt>
      <trkpt lat="44.84872" lon="1.30985">
        <ele>86.18</ele>
        <time>2022-08-07T13:53:36Z</time>
      </trkpt>
      <trkpt lat="44.84836" lon="1.31059">
        <ele>85.69</ele>
        <time>2022-08-07T13:53:44Z</time>
      </trkpt>
      <trkpt lat="44.84827" lon="1.3109">
        <ele>85.21</ele>
        <time>2022-08-07T13:53:47Z</time>
      </trkpt>
      <trkpt lat="44.84825" lon="1.31101">
        <ele>85.21</ele>
        <time>2022-08-07T13:53:48Z</time>
      </trkpt>
      <trkpt lat="44.84819" lon="1.31131">
        <ele>84.73</ele>
        <time>2022-08-07T13:53:51Z</time>
      </trkpt>
      <trkpt lat="44.84814" lon="1.31139">
        <ele>84.73</ele>
        <time>2022-08-07T13:53:52Z</time>
      </trkpt>
      <trkpt lat="44.84807" lon="1.31144">
        <ele>84.73</ele>
        <time>2022-08-07T13:53:53Z</time>
      </trkpt>
      <trkpt lat="44.84801" lon="1.31145">
        <ele>85.21</ele>
        <time>2022-08-07T13:53:54Z</time>
      </trkpt>
      <trkpt lat="44.84795" lon="1.31143">
        <ele>85.21</ele>
        <time>2022-08-07T13:53:55Z</time>
      </trkpt>
      <trkpt lat="44.84789" lon="1.31141">
        <ele>85.21</ele>
        <time>2022-08-07T13:53:56Z</time>
      </trkpt>
      <trkpt lat="44.84783" lon="1.31139">
        <ele>84.73</ele>
        <time>2022-08-07T13:53:57Z</time>
      </trkpt>
      <trkpt lat="44.84777" lon="1.31136">
        <ele>84.73</ele>
        <time>2022-08-07T13:53:58Z</time>
      </trkpt>
      <trkpt lat="44.84771" lon="1.31132">
        <ele>84.73</ele>
        <time>2022-08-07T13:53:59Z</time>
      </trkpt>
      <trkpt lat="44.84667" lon="1.3105">
        <ele>82.33</ele>
        <time>2022-08-07T13:54:17Z</time>
      </trkpt>
      <trkpt lat="44.84588" lon="1.30975">
        <ele>81.37</ele>
        <time>2022-08-07T13:54:31Z</time>
      </trkpt>
      <trkpt lat="44.84501" lon="1.30858">
        <ele>81.37</ele>
        <time>2022-08-07T13:54:48Z</time>
      </trkpt>
      <trkpt lat="44.84442" lon="1.30772">
        <ele>79.93</ele>
        <time>2022-08-07T13:55:00Z</time>
      </trkpt>
      <trkpt lat="44.84364" lon="1.30646">
        <ele>79.93</ele>
        <time>2022-08-07T13:55:18Z</time>
      </trkpt>
      <trkpt lat="44.84359" lon="1.3064">
        <ele>79.93</ele>
        <time>2022-08-07T13:55:19Z</time>
      </trkpt>
      <trkpt lat="44.84349" lon="1.3062">
        <ele>80.41</ele>
        <time>2022-08-07T13:55:22Z</time>
      </trkpt>
      <trkpt lat="44.84333" lon="1.30573">
        <ele>81.37</ele>
        <time>2022-08-07T13:55:29Z</time>
      </trkpt>
      <trkpt lat="44.84331" lon="1.30567">
        <ele>81.37</ele>
        <time>2022-08-07T13:55:30Z</time>
      </trkpt>
      <trkpt lat="44.84303" lon="1.30474">
        <ele>83.29</ele>
        <time>2022-08-07T13:55:45Z</time>
      </trkpt>
      <trkpt lat="44.84292" lon="1.30406">
        <ele>83.29</ele>
        <time>2022-08-07T13:55:55Z</time>
      </trkpt>
      <trkpt lat="44.8429" lon="1.30349">
        <ele>86.18</ele>
        <time>2022-08-07T13:56:07Z</time>
      </trkpt>
      <trkpt lat="44.84268" lon="1.30304">
        <ele>90.5</ele>
        <time>2022-08-07T13:56:19Z</time>
      </trkpt>
      <trkpt lat="44.84265" lon="1.30258">
        <ele>93.87</ele>
        <time>2022-08-07T13:56:29Z</time>
      </trkpt>
      <trkpt lat="44.84261" lon="1.30243">
        <ele>93.87</ele>
        <time>2022-08-07T13:56:32Z</time>
      </trkpt>
      <trkpt lat="44.84259" lon="1.30237">
        <ele>94.35</ele>
        <time>2022-08-07T13:56:33Z</time>
      </trkpt>
      <trkpt lat="44.84216" lon="1.30165">
        <ele>93.39</ele>
        <time>2022-08-07T13:56:45Z</time>
      </trkpt>
      <trkpt lat="44.84189" lon="1.30146">
        <ele>93.39</ele>
        <time>2022-08-07T13:56:51Z</time>
      </trkpt>
      <trkpt lat="44.84185" lon="1.30145">
        <ele>93.39</ele>
        <time>2022-08-07T13:56:52Z</time>
      </trkpt>
      <trkpt lat="44.8418" lon="1.30144">
        <ele>93.87</ele>
        <time>2022-08-07T13:56:53Z</time>
      </trkpt>
      <trkpt lat="44.84176" lon="1.30144">
        <ele>93.87</ele>
        <time>2022-08-07T13:56:54Z</time>
      </trkpt>
      <trkpt lat="44.84172" lon="1.30145">
        <ele>93.87</ele>
        <time>2022-08-07T13:56:55Z</time>
      </trkpt>
      <trkpt lat="44.84168" lon="1.30145">
        <ele>93.87</ele>
        <time>2022-08-07T13:56:56Z</time>
      </trkpt>
      <trkpt lat="44.84108" lon="1.30157">
        <ele>97.71</ele>
        <time>2022-08-07T13:57:13Z</time>
      </trkpt>
      <trkpt lat="44.84093" lon="1.30155">
        <ele>97.23</ele>
        <time>2022-08-07T13:57:17Z</time>
      </trkpt>
      <trkpt lat="44.84049" lon="1.3012">
        <ele>97.23</ele>
        <time>2022-08-07T13:57:30Z</time>
      </trkpt>
      <trkpt lat="44.83979" lon="1.30054">
        <ele>99.63</ele>
        <time>2022-08-07T13:57:51Z</time>
      </trkpt>
      <trkpt lat="44.83904" lon="1.29985">
        <ele>100.6</ele>
        <time>2022-08-07T13:58:10Z</time>
      </trkpt>
      <trkpt lat="44.83833" lon="1.29917">
        <ele>99.63</ele>
        <time>2022-08-07T13:58:27Z</time>
      </trkpt>
      <trkpt lat="44.83774" lon="1.29858">
        <ele>102.04</ele>
        <time>2022-08-07T13:58:41Z</time>
      </trkpt>
      <trkpt lat="44.83711" lon="1.29778">
        <ele>105.4</ele>
        <time>2022-08-07T13:58:59Z</time>
      </trkpt>
      <trkpt lat="44.83691" lon="1.29749">
        <ele>105.88</ele>
        <time>2022-08-07T13:59:05Z</time>
      </trkpt>
      <trkpt lat="44.83688" lon="1.29743">
        <ele>105.88</ele>
        <time>2022-08-07T13:59:06Z</time>
      </trkpt>
      <trkpt lat="44.83686" lon="1.29736">
        <ele>105.88</ele>
        <time>2022-08-07T13:59:07Z</time>
      </trkpt>
      <trkpt lat="44.83684" lon="1.2973">
        <ele>105.88</ele>
        <time>2022-08-07T13:59:08Z</time>
      </trkpt>
      <trkpt lat="44.83682" lon="1.29722">
        <ele>105.88</ele>
        <time>2022-08-07T13:59:09Z</time>
      </trkpt>
      <trkpt lat="44.83681" lon="1.29715">
        <ele>105.88</ele>
        <time>2022-08-07T13:59:10Z</time>
      </trkpt>
      <trkpt lat="44.83674" lon="1.29665">
        <ele>105.4</ele>
        <time>2022-08-07T13:59:17Z</time>
      </trkpt>
      <trkpt lat="44.83678" lon="1.29627">
        <ele>105.4</ele>
        <time>2022-08-07T13:59:22Z</time>
      </trkpt>
      <trkpt lat="44.83686" lon="1.29599">
        <ele>105.4</ele>
        <time>2022-08-07T13:59:26Z</time>
      </trkpt>
      <trkpt lat="44.83742" lon="1.29493">
        <ele>106.36</ele>
        <time>2022-08-07T13:59:43Z</time>
      </trkpt>
      <trkpt lat="44.8379" lon="1.29402">
        <ele>107.81</ele>
        <time>2022-08-07T13:59:59Z</time>
      </trkpt>
      <trkpt lat="44.83832" lon="1.29327">
        <ele>111.65</ele>
        <time>2022-08-07T14:00:16Z</time>
      </trkpt>
      <trkpt lat="44.83845" lon="1.29266">
        <ele>112.61</ele>
        <time>2022-08-07T14:00:28Z</time>
      </trkpt>
      <trkpt lat="44.83843" lon="1.29182">
        <ele>113.09</ele>
        <time>2022-08-07T14:00:44Z</time>
      </trkpt>
      <trkpt lat="44.83849" lon="1.29094">
        <ele>115.5</ele>
        <time>2022-08-07T14:01:03Z</time>
      </trkpt>
      <trkpt lat="44.83855" lon="1.29041">
        <ele>118.38</ele>
        <time>2022-08-07T14:01:16Z</time>
      </trkpt>
      <trkpt lat="44.83853" lon="1.28972">
        <ele>123.19</ele>
        <time>2022-08-07T14:01:32Z</time>
      </trkpt>
      <trkpt lat="44.83829" lon="1.28904">
        <ele>125.59</ele>
        <time>2022-08-07T14:01:46Z</time>
      </trkpt>
      <trkpt lat="44.83802" lon="1.28824">
        <ele>126.55</ele>
        <time>2022-08-07T14:02:02Z</time>
      </trkpt>
      <trkpt lat="44.83789" lon="1.28757">
        <ele>129.92</ele>
        <time>2022-08-07T14:02:16Z</time>
      </trkpt>
      <trkpt lat="44.83787" lon="1.28667">
        <ele>128.95</ele>
        <time>2022-08-07T14:02:31Z</time>
      </trkpt>
      <trkpt lat="44.83784" lon="1.28547">
        <ele>125.11</ele>
        <time>2022-08-07T14:02:45Z</time>
      </trkpt>
      <trkpt lat="44.83771" lon="1.28387">
        <ele>121.74</ele>
        <time>2022-08-07T14:03:02Z</time>
      </trkpt>
      <trkpt lat="44.83777" lon="1.28245">
        <ele>117.9</ele>
        <time>2022-08-07T14:03:16Z</time>
      </trkpt>
      <trkpt lat="44.83804" lon="1.28058">
        <ele>110.21</ele>
        <time>2022-08-07T14:03:31Z</time>
      </trkpt>
      <trkpt lat="44.8382" lon="1.27873">
        <ele>103.48</ele>
        <time>2022-08-07T14:03:44Z</time>
      </trkpt>
      <trkpt lat="44.83824" lon="1.27832">
        <ele>101.56</ele>
        <time>2022-08-07T14:03:47Z</time>
      </trkpt>
      <trkpt lat="44.83827" lon="1.27818">
        <ele>101.08</ele>
        <time>2022-08-07T14:03:48Z</time>
      </trkpt>
      <trkpt lat="44.83833" lon="1.27806">
        <ele>100.11</ele>
        <time>2022-08-07T14:03:49Z</time>
      </trkpt>
      <trkpt lat="44.8384" lon="1.27795">
        <ele>99.63</ele>
        <time>2022-08-07T14:03:50Z</time>
      </trkpt>
      <trkpt lat="44.83847" lon="1.27786">
        <ele>98.67</ele>
        <time>2022-08-07T14:03:51Z</time>
      </trkpt>
      <trkpt lat="44.83855" lon="1.27777">
        <ele>98.19</ele>
        <time>2022-08-07T14:03:52Z</time>
      </trkpt>
      <trkpt lat="44.83901" lon="1.27718">
        <ele>94.83</ele>
        <time>2022-08-07T14:03:58Z</time>
      </trkpt>
      <trkpt lat="44.83907" lon="1.27706">
        <ele>94.35</ele>
        <time>2022-08-07T14:03:59Z</time>
      </trkpt>
      <trkpt lat="44.83912" lon="1.27694">
        <ele>93.87</ele>
        <time>2022-08-07T14:04:00Z</time>
      </trkpt>
      <trkpt lat="44.83935" lon="1.27625">
        <ele>90.5</ele>
        <time>2022-08-07T14:04:07Z</time>
      </trkpt>
      <trkpt lat="44.83946" lon="1.27574">
        <ele>88.1</ele>
        <time>2022-08-07T14:04:12Z</time>
      </trkpt>
      <trkpt lat="44.8395" lon="1.27565">
        <ele>87.14</ele>
        <time>2022-08-07T14:04:13Z</time>
      </trkpt>
      <trkpt lat="44.83957" lon="1.27557">
        <ele>86.66</ele>
        <time>2022-08-07T14:04:14Z</time>
      </trkpt>
      <trkpt lat="44.83964" lon="1.27553">
        <ele>86.18</ele>
        <time>2022-08-07T14:04:15Z</time>
      </trkpt>
      <trkpt lat="44.83971" lon="1.27549">
        <ele>85.69</ele>
        <time>2022-08-07T14:04:16Z</time>
      </trkpt>
      <trkpt lat="44.83979" lon="1.27548">
        <ele>85.21</ele>
        <time>2022-08-07T14:04:17Z</time>
      </trkpt>
      <trkpt lat="44.83986" lon="1.27547">
        <ele>85.21</ele>
        <time>2022-08-07T14:04:18Z</time>
      </trkpt>
      <trkpt lat="44.83993" lon="1.27546">
        <ele>85.21</ele>
        <time>2022-08-07T14:04:19Z</time>
      </trkpt>
      <trkpt lat="44.83999" lon="1.27541">
        <ele>85.21</ele>
        <time>2022-08-07T14:04:20Z</time>
      </trkpt>
      <trkpt lat="44.84003" lon="1.27534">
        <ele>84.73</ele>
        <time>2022-08-07T14:04:21Z</time>
      </trkpt>
      <trkpt lat="44.8401" lon="1.27518">
        <ele>84.73</ele>
        <time>2022-08-07T14:04:23Z</time>
      </trkpt>
      <trkpt lat="44.84015" lon="1.27513">
        <ele>84.25</ele>
        <time>2022-08-07T14:04:24Z</time>
      </trkpt>
      <trkpt lat="44.84023" lon="1.2751">
        <ele>83.77</ele>
        <time>2022-08-07T14:04:25Z</time>
      </trkpt>
      <trkpt lat="44.84057" lon="1.27496">
        <ele>81.37</ele>
        <time>2022-08-07T14:04:29Z</time>
      </trkpt>
      <trkpt lat="44.84065" lon="1.27487">
        <ele>80.41</ele>
        <time>2022-08-07T14:04:30Z</time>
      </trkpt>
      <trkpt lat="44.84071" lon="1.27476">
        <ele>79.45</ele>
        <time>2022-08-07T14:04:31Z</time>
      </trkpt>
      <trkpt lat="44.84077" lon="1.27462">
        <ele>78.48</ele>
        <time>2022-08-07T14:04:32Z</time>
      </trkpt>
      <trkpt lat="44.8408" lon="1.27448">
        <ele>78</ele>
        <time>2022-08-07T14:04:33Z</time>
      </trkpt>
      <trkpt lat="44.84079" lon="1.27432">
        <ele>77.04</ele>
        <time>2022-08-07T14:04:34Z</time>
      </trkpt>
      <trkpt lat="44.84076" lon="1.2742">
        <ele>76.56</ele>
        <time>2022-08-07T14:04:35Z</time>
      </trkpt>
      <trkpt lat="44.8407" lon="1.27408">
        <ele>75.6</ele>
        <time>2022-08-07T14:04:36Z</time>
      </trkpt>
      <trkpt lat="44.84062" lon="1.27383">
        <ele>75.12</ele>
        <time>2022-08-07T14:04:38Z</time>
      </trkpt>
      <trkpt lat="44.8406" lon="1.27368">
        <ele>74.64</ele>
        <time>2022-08-07T14:04:39Z</time>
      </trkpt>
      <trkpt lat="44.84059" lon="1.27356">
        <ele>74.64</ele>
        <time>2022-08-07T14:04:40Z</time>
      </trkpt>
      <trkpt lat="44.84061" lon="1.27231">
        <ele>73.68</ele>
        <time>2022-08-07T14:04:51Z</time>
      </trkpt>
      <trkpt lat="44.8406" lon="1.27221">
        <ele>73.68</ele>
        <time>2022-08-07T14:04:52Z</time>
      </trkpt>
      <trkpt lat="44.84027" lon="1.27083">
        <ele>75.6</ele>
        <time>2022-08-07T14:05:07Z</time>
      </trkpt>
      <trkpt lat="44.84027" lon="1.27072">
        <ele>75.6</ele>
        <time>2022-08-07T14:05:08Z</time>
      </trkpt>
      <trkpt lat="44.84027" lon="1.27063">
        <ele>75.6</ele>
        <time>2022-08-07T14:05:09Z</time>
      </trkpt>
      <trkpt lat="44.84029" lon="1.27052">
        <ele>75.6</ele>
        <time>2022-08-07T14:05:10Z</time>
      </trkpt>
      <trkpt lat="44.84031" lon="1.27043">
        <ele>75.12</ele>
        <time>2022-08-07T14:05:11Z</time>
      </trkpt>
      <trkpt lat="44.84035" lon="1.27033">
        <ele>75.12</ele>
        <time>2022-08-07T14:05:12Z</time>
      </trkpt>
      <trkpt lat="44.84038" lon="1.27025">
        <ele>75.12</ele>
        <time>2022-08-07T14:05:13Z</time>
      </trkpt>
      <trkpt lat="44.84042" lon="1.27017">
        <ele>75.12</ele>
        <time>2022-08-07T14:05:14Z</time>
      </trkpt>
      <trkpt lat="44.84047" lon="1.2701">
        <ele>75.6</ele>
        <time>2022-08-07T14:05:15Z</time>
      </trkpt>
      <trkpt lat="44.84052" lon="1.27004">
        <ele>75.6</ele>
        <time>2022-08-07T14:05:16Z</time>
      </trkpt>
      <trkpt lat="44.84058" lon="1.26998">
        <ele>75.6</ele>
        <time>2022-08-07T14:05:17Z</time>
      </trkpt>
      <trkpt lat="44.84063" lon="1.26993">
        <ele>75.6</ele>
        <time>2022-08-07T14:05:18Z</time>
      </trkpt>
      <trkpt lat="44.84069" lon="1.26989">
        <ele>75.6</ele>
        <time>2022-08-07T14:05:19Z</time>
      </trkpt>
      <trkpt lat="44.84155" lon="1.26921">
        <ele>77.04</ele>
        <time>2022-08-07T14:05:35Z</time>
      </trkpt>
      <trkpt lat="44.84219" lon="1.26842">
        <ele>80.41</ele>
        <time>2022-08-07T14:05:50Z</time>
      </trkpt>
      <trkpt lat="44.84262" lon="1.26755">
        <ele>84.25</ele>
        <time>2022-08-07T14:06:03Z</time>
      </trkpt>
      <trkpt lat="44.84282" lon="1.26695">
        <ele>84.25</ele>
        <time>2022-08-07T14:06:12Z</time>
      </trkpt>
      <trkpt lat="44.84314" lon="1.26625">
        <ele>82.33</ele>
        <time>2022-08-07T14:06:28Z</time>
      </trkpt>
      <trkpt lat="44.84339" lon="1.26557">
        <ele>80.41</ele>
        <time>2022-08-07T14:06:45Z</time>
      </trkpt>
      <trkpt lat="44.84351" lon="1.26501">
        <ele>81.85</ele>
        <time>2022-08-07T14:06:59Z</time>
      </trkpt>
      <trkpt lat="44.84361" lon="1.26435">
        <ele>83.77</ele>
        <time>2022-08-07T14:07:15Z</time>
      </trkpt>
      <trkpt lat="44.8437" lon="1.26381">
        <ele>86.66</ele>
        <time>2022-08-07T14:07:28Z</time>
      </trkpt>
      <trkpt lat="44.8437" lon="1.26315">
        <ele>87.14</ele>
        <time>2022-08-07T14:07:42Z</time>
      </trkpt>
      <trkpt lat="44.84382" lon="1.26248">
        <ele>95.31</ele>
        <time>2022-08-07T14:07:55Z</time>
      </trkpt>
      <trkpt lat="44.84381" lon="1.26167">
        <ele>98.19</ele>
        <time>2022-08-07T14:08:10Z</time>
      </trkpt>
      <trkpt lat="44.84382" lon="1.26126">
        <ele>100.11</ele>
        <time>2022-08-07T14:08:17Z</time>
      </trkpt>
      <trkpt lat="44.84382" lon="1.2612">
        <ele>100.11</ele>
        <time>2022-08-07T14:08:18Z</time>
      </trkpt>
      <trkpt lat="44.84373" lon="1.26062">
        <ele>103</ele>
        <time>2022-08-07T14:08:28Z</time>
      </trkpt>
      <trkpt lat="44.84357" lon="1.25995">
        <ele>105.4</ele>
        <time>2022-08-07T14:08:41Z</time>
      </trkpt>
      <trkpt lat="44.8434" lon="1.25922">
        <ele>108.29</ele>
        <time>2022-08-07T14:08:56Z</time>
      </trkpt>
      <trkpt lat="44.84357" lon="1.25882">
        <ele>109.73</ele>
        <time>2022-08-07T14:09:05Z</time>
      </trkpt>
      <trkpt lat="44.84411" lon="1.25815">
        <ele>106.36</ele>
        <time>2022-08-07T14:09:18Z</time>
      </trkpt>
      <trkpt lat="44.84458" lon="1.25686">
        <ele>101.08</ele>
        <time>2022-08-07T14:09:31Z</time>
      </trkpt>
      <trkpt lat="44.8448" lon="1.25583">
        <ele>96.75</ele>
        <time>2022-08-07T14:09:39Z</time>
      </trkpt>
      <trkpt lat="44.84482" lon="1.25569">
        <ele>95.79</ele>
        <time>2022-08-07T14:09:40Z</time>
      </trkpt>
      <trkpt lat="44.84482" lon="1.25555">
        <ele>95.31</ele>
        <time>2022-08-07T14:09:41Z</time>
      </trkpt>
      <trkpt lat="44.8448" lon="1.25542">
        <ele>94.83</ele>
        <time>2022-08-07T14:09:42Z</time>
      </trkpt>
      <trkpt lat="44.84478" lon="1.25528">
        <ele>94.35</ele>
        <time>2022-08-07T14:09:43Z</time>
      </trkpt>
      <trkpt lat="44.84477" lon="1.25515">
        <ele>93.39</ele>
        <time>2022-08-07T14:09:44Z</time>
      </trkpt>
      <trkpt lat="44.84479" lon="1.25501">
        <ele>92.9</ele>
        <time>2022-08-07T14:09:45Z</time>
      </trkpt>
      <trkpt lat="44.84483" lon="1.25489">
        <ele>92.42</ele>
        <time>2022-08-07T14:09:46Z</time>
      </trkpt>
      <trkpt lat="44.8449" lon="1.25478">
        <ele>91.46</ele>
        <time>2022-08-07T14:09:47Z</time>
      </trkpt>
      <trkpt lat="44.84497" lon="1.25467">
        <ele>90.98</ele>
        <time>2022-08-07T14:09:48Z</time>
      </trkpt>
      <trkpt lat="44.84501" lon="1.25456">
        <ele>90.5</ele>
        <time>2022-08-07T14:09:49Z</time>
      </trkpt>
      <trkpt lat="44.84504" lon="1.25443">
        <ele>90.02</ele>
        <time>2022-08-07T14:09:50Z</time>
      </trkpt>
      <trkpt lat="44.84506" lon="1.2543">
        <ele>90.02</ele>
        <time>2022-08-07T14:09:51Z</time>
      </trkpt>
      <trkpt lat="44.84508" lon="1.25418">
        <ele>90.02</ele>
        <time>2022-08-07T14:09:52Z</time>
      </trkpt>
      <trkpt lat="44.84517" lon="1.25348">
        <ele>90.5</ele>
        <time>2022-08-07T14:09:59Z</time>
      </trkpt>
      <trkpt lat="44.84517" lon="1.2534">
        <ele>90.98</ele>
        <time>2022-08-07T14:10:00Z</time>
      </trkpt>
      <trkpt lat="44.84515" lon="1.25332">
        <ele>90.98</ele>
        <time>2022-08-07T14:10:01Z</time>
      </trkpt>
      <trkpt lat="44.84512" lon="1.25325">
        <ele>91.46</ele>
        <time>2022-08-07T14:10:02Z</time>
      </trkpt>
      <trkpt lat="44.84508" lon="1.2532">
        <ele>91.46</ele>
        <time>2022-08-07T14:10:03Z</time>
      </trkpt>
      <trkpt lat="44.84504" lon="1.25315">
        <ele>91.94</ele>
        <time>2022-08-07T14:10:04Z</time>
      </trkpt>
      <trkpt lat="44.84499" lon="1.25312">
        <ele>91.94</ele>
        <time>2022-08-07T14:10:05Z</time>
      </trkpt>
      <trkpt lat="44.84495" lon="1.2531">
        <ele>92.42</ele>
        <time>2022-08-07T14:10:06Z</time>
      </trkpt>
      <trkpt lat="44.8449" lon="1.25307">
        <ele>92.42</ele>
        <time>2022-08-07T14:10:07Z</time>
      </trkpt>
      <trkpt lat="44.84461" lon="1.25292">
        <ele>93.87</ele>
        <time>2022-08-07T14:10:13Z</time>
      </trkpt>
      <trkpt lat="44.84448" lon="1.25281">
        <ele>94.35</ele>
        <time>2022-08-07T14:10:16Z</time>
      </trkpt>
      <trkpt lat="44.84444" lon="1.25276">
        <ele>94.35</ele>
        <time>2022-08-07T14:10:17Z</time>
      </trkpt>
      <trkpt lat="44.8444" lon="1.2527">
        <ele>94.35</ele>
        <time>2022-08-07T14:10:18Z</time>
      </trkpt>
      <trkpt lat="44.84434" lon="1.25259">
        <ele>94.83</ele>
        <time>2022-08-07T14:10:20Z</time>
      </trkpt>
      <trkpt lat="44.84431" lon="1.25253">
        <ele>94.83</ele>
        <time>2022-08-07T14:10:21Z</time>
      </trkpt>
      <trkpt lat="44.84429" lon="1.25247">
        <ele>95.31</ele>
        <time>2022-08-07T14:10:22Z</time>
      </trkpt>
      <trkpt lat="44.84427" lon="1.2524">
        <ele>95.31</ele>
        <time>2022-08-07T14:10:23Z</time>
      </trkpt>
      <trkpt lat="44.84425" lon="1.25233">
        <ele>95.31</ele>
        <time>2022-08-07T14:10:24Z</time>
      </trkpt>
      <trkpt lat="44.84422" lon="1.25226">
        <ele>95.79</ele>
        <time>2022-08-07T14:10:25Z</time>
      </trkpt>
      <trkpt lat="44.84416" lon="1.25206">
        <ele>96.27</ele>
        <time>2022-08-07T14:10:28Z</time>
      </trkpt>
      <trkpt lat="44.84413" lon="1.252">
        <ele>96.75</ele>
        <time>2022-08-07T14:10:29Z</time>
      </trkpt>
      <trkpt lat="44.8441" lon="1.25194">
        <ele>97.23</ele>
        <time>2022-08-07T14:10:30Z</time>
      </trkpt>
      <trkpt lat="44.84406" lon="1.25189">
        <ele>97.71</ele>
        <time>2022-08-07T14:10:31Z</time>
      </trkpt>
      <trkpt lat="44.84403" lon="1.25185">
        <ele>98.19</ele>
        <time>2022-08-07T14:10:32Z</time>
      </trkpt>
      <trkpt lat="44.84381" lon="1.25156">
        <ele>101.56</ele>
        <time>2022-08-07T14:10:38Z</time>
      </trkpt>
      <trkpt lat="44.84377" lon="1.25151">
        <ele>102.04</ele>
        <time>2022-08-07T14:10:39Z</time>
      </trkpt>
      <trkpt lat="44.84375" lon="1.25145">
        <ele>102.52</ele>
        <time>2022-08-07T14:10:40Z</time>
      </trkpt>
      <trkpt lat="44.84356" lon="1.25093">
        <ele>107.32</ele>
        <time>2022-08-07T14:10:50Z</time>
      </trkpt>
      <trkpt lat="44.8435" lon="1.25085">
        <ele>107.81</ele>
        <time>2022-08-07T14:10:52Z</time>
      </trkpt>
      <trkpt lat="44.84347" lon="1.25082">
        <ele>107.81</ele>
        <time>2022-08-07T14:10:53Z</time>
      </trkpt>
      <trkpt lat="44.84343" lon="1.25079">
        <ele>107.81</ele>
        <time>2022-08-07T14:10:54Z</time>
      </trkpt>
      <trkpt lat="44.84339" lon="1.25077">
        <ele>107.81</ele>
        <time>2022-08-07T14:10:55Z</time>
      </trkpt>
      <trkpt lat="44.84335" lon="1.25076">
        <ele>108.29</ele>
        <time>2022-08-07T14:10:56Z</time>
      </trkpt>
      <trkpt lat="44.84331" lon="1.25076">
        <ele>108.29</ele>
        <time>2022-08-07T14:10:57Z</time>
      </trkpt>
      <trkpt lat="44.84327" lon="1.25077">
        <ele>108.29</ele>
        <time>2022-08-07T14:10:58Z</time>
      </trkpt>
      <trkpt lat="44.84322" lon="1.25078">
        <ele>108.77</ele>
        <time>2022-08-07T14:10:59Z</time>
      </trkpt>
      <trkpt lat="44.84309" lon="1.25081">
        <ele>109.25</ele>
        <time>2022-08-07T14:11:02Z</time>
      </trkpt>
      <trkpt lat="44.84304" lon="1.25082">
        <ele>109.25</ele>
        <time>2022-08-07T14:11:03Z</time>
      </trkpt>
      <trkpt lat="44.843" lon="1.25082">
        <ele>109.73</ele>
        <time>2022-08-07T14:11:04Z</time>
      </trkpt>
      <trkpt lat="44.84295" lon="1.25081">
        <ele>109.73</ele>
        <time>2022-08-07T14:11:05Z</time>
      </trkpt>
      <trkpt lat="44.8429" lon="1.2508">
        <ele>110.21</ele>
        <time>2022-08-07T14:11:06Z</time>
      </trkpt>
      <trkpt lat="44.84286" lon="1.25079">
        <ele>110.21</ele>
        <time>2022-08-07T14:11:07Z</time>
      </trkpt>
      <trkpt lat="44.84282" lon="1.25077">
        <ele>110.69</ele>
        <time>2022-08-07T14:11:08Z</time>
      </trkpt>
      <trkpt lat="44.84277" lon="1.25074">
        <ele>110.69</ele>
        <time>2022-08-07T14:11:09Z</time>
      </trkpt>
      <trkpt lat="44.84216" lon="1.25034">
        <ele>112.13</ele>
        <time>2022-08-07T14:11:24Z</time>
      </trkpt>
      <trkpt lat="44.84186" lon="1.25024">
        <ele>111.65</ele>
        <time>2022-08-07T14:11:31Z</time>
      </trkpt>
      <trkpt lat="44.84181" lon="1.25023">
        <ele>111.65</ele>
        <time>2022-08-07T14:11:32Z</time>
      </trkpt>
      <trkpt lat="44.84177" lon="1.25021">
        <ele>111.65</ele>
        <time>2022-08-07T14:11:33Z</time>
      </trkpt>
      <trkpt lat="44.84145" lon="1.24996">
        <ele>111.65</ele>
        <time>2022-08-07T14:11:41Z</time>
      </trkpt>
      <trkpt lat="44.84071" lon="1.24963">
        <ele>112.13</ele>
        <time>2022-08-07T14:11:57Z</time>
      </trkpt>
      <trkpt lat="44.83983" lon="1.24942">
        <ele>110.21</ele>
        <time>2022-08-07T14:12:12Z</time>
      </trkpt>
      <trkpt lat="44.83875" lon="1.24895">
        <ele>108.77</ele>
        <time>2022-08-07T14:12:27Z</time>
      </trkpt>
      <trkpt lat="44.83791" lon="1.24815">
        <ele>104.44</ele>
        <time>2022-08-07T14:12:38Z</time>
      </trkpt>
      <trkpt lat="44.83783" lon="1.24807">
        <ele>103.96</ele>
        <time>2022-08-07T14:12:39Z</time>
      </trkpt>
      <trkpt lat="44.83771" lon="1.24797">
        <ele>103</ele>
        <time>2022-08-07T14:12:40Z</time>
      </trkpt>
      <trkpt lat="44.83734" lon="1.24769">
        <ele>100.11</ele>
        <time>2022-08-07T14:12:44Z</time>
      </trkpt>
      <trkpt lat="44.83725" lon="1.24759">
        <ele>99.63</ele>
        <time>2022-08-07T14:12:45Z</time>
      </trkpt>
      <trkpt lat="44.83716" lon="1.24748">
        <ele>99.15</ele>
        <time>2022-08-07T14:12:46Z</time>
      </trkpt>
      <trkpt lat="44.83709" lon="1.24737">
        <ele>98.67</ele>
        <time>2022-08-07T14:12:47Z</time>
      </trkpt>
      <trkpt lat="44.83701" lon="1.24725">
        <ele>98.19</ele>
        <time>2022-08-07T14:12:48Z</time>
      </trkpt>
      <trkpt lat="44.83694" lon="1.24712">
        <ele>98.19</ele>
        <time>2022-08-07T14:12:49Z</time>
      </trkpt>
      <trkpt lat="44.83638" lon="1.24615">
        <ele>100.6</ele>
        <time>2022-08-07T14:12:59Z</time>
      </trkpt>
      <trkpt lat="44.83586" lon="1.24522">
        <ele>105.88</ele>
        <time>2022-08-07T14:13:14Z</time>
      </trkpt>
      <trkpt lat="44.83584" lon="1.24516">
        <ele>106.36</ele>
        <time>2022-08-07T14:13:15Z</time>
      </trkpt>
      <trkpt lat="44.83578" lon="1.24498">
        <ele>106.84</ele>
        <time>2022-08-07T14:13:18Z</time>
      </trkpt>
      <trkpt lat="44.83575" lon="1.24479">
        <ele>107.32</ele>
        <time>2022-08-07T14:13:21Z</time>
      </trkpt>
      <trkpt lat="44.83579" lon="1.24377">
        <ele>111.65</ele>
        <time>2022-08-07T14:13:37Z</time>
      </trkpt>
      <trkpt lat="44.83583" lon="1.24329">
        <ele>113.09</ele>
        <time>2022-08-07T14:13:45Z</time>
      </trkpt>
      <trkpt lat="44.83605" lon="1.24249">
        <ele>116.94</ele>
        <time>2022-08-07T14:14:01Z</time>
      </trkpt>
      <trkpt lat="44.83632" lon="1.24154">
        <ele>115.5</ele>
        <time>2022-08-07T14:14:18Z</time>
      </trkpt>
      <trkpt lat="44.83636" lon="1.24081">
        <ele>111.65</ele>
        <time>2022-08-07T14:14:25Z</time>
      </trkpt>
      <trkpt lat="44.83609" lon="1.23928">
        <ele>103</ele>
        <time>2022-08-07T14:14:36Z</time>
      </trkpt>
      <trkpt lat="44.83557" lon="1.23774">
        <ele>95.79</ele>
        <time>2022-08-07T14:14:46Z</time>
      </trkpt>
      <trkpt lat="44.8349" lon="1.23645">
        <ele>93.39</ele>
        <time>2022-08-07T14:14:57Z</time>
      </trkpt>
      <trkpt lat="44.83459" lon="1.23591">
        <ele>93.87</ele>
        <time>2022-08-07T14:15:04Z</time>
      </trkpt>
      <trkpt lat="44.83454" lon="1.23586">
        <ele>94.35</ele>
        <time>2022-08-07T14:15:05Z</time>
      </trkpt>
      <trkpt lat="44.83449" lon="1.23583">
        <ele>94.35</ele>
        <time>2022-08-07T14:15:06Z</time>
      </trkpt>
      <trkpt lat="44.83444" lon="1.23579">
        <ele>94.83</ele>
        <time>2022-08-07T14:15:07Z</time>
      </trkpt>
      <trkpt lat="44.83439" lon="1.23577">
        <ele>94.83</ele>
        <time>2022-08-07T14:15:08Z</time>
      </trkpt>
      <trkpt lat="44.83434" lon="1.23575">
        <ele>95.31</ele>
        <time>2022-08-07T14:15:09Z</time>
      </trkpt>
      <trkpt lat="44.8336" lon="1.23568">
        <ele>96.75</ele>
        <time>2022-08-07T14:15:24Z</time>
      </trkpt>
      <trkpt lat="44.83269" lon="1.2359">
        <ele>94.83</ele>
        <time>2022-08-07T14:15:38Z</time>
      </trkpt>
      <trkpt lat="44.83188" lon="1.23611">
        <ele>91.94</ele>
        <time>2022-08-07T14:15:48Z</time>
      </trkpt>
      <trkpt lat="44.8318" lon="1.23608">
        <ele>91.46</ele>
        <time>2022-08-07T14:15:49Z</time>
      </trkpt>
      <trkpt lat="44.83172" lon="1.23603">
        <ele>91.46</ele>
        <time>2022-08-07T14:15:50Z</time>
      </trkpt>
      <trkpt lat="44.83164" lon="1.23596">
        <ele>90.98</ele>
        <time>2022-08-07T14:15:51Z</time>
      </trkpt>
      <trkpt lat="44.83158" lon="1.23587">
        <ele>90.5</ele>
        <time>2022-08-07T14:15:52Z</time>
      </trkpt>
      <trkpt lat="44.83153" lon="1.23577">
        <ele>90.02</ele>
        <time>2022-08-07T14:15:53Z</time>
      </trkpt>
      <trkpt lat="44.83149" lon="1.23566">
        <ele>89.54</ele>
        <time>2022-08-07T14:15:54Z</time>
      </trkpt>
      <trkpt lat="44.83146" lon="1.23553">
        <ele>89.06</ele>
        <time>2022-08-07T14:15:55Z</time>
      </trkpt>
      <trkpt lat="44.83144" lon="1.23541">
        <ele>88.58</ele>
        <time>2022-08-07T14:15:56Z</time>
      </trkpt>
      <trkpt lat="44.83144" lon="1.23528">
        <ele>87.62</ele>
        <time>2022-08-07T14:15:57Z</time>
      </trkpt>
      <trkpt lat="44.83144" lon="1.23515">
        <ele>87.14</ele>
        <time>2022-08-07T14:15:58Z</time>
      </trkpt>
      <trkpt lat="44.83145" lon="1.23502">
        <ele>86.66</ele>
        <time>2022-08-07T14:15:59Z</time>
      </trkpt>
      <trkpt lat="44.83146" lon="1.23488">
        <ele>86.18</ele>
        <time>2022-08-07T14:16:00Z</time>
      </trkpt>
      <trkpt lat="44.83147" lon="1.23447">
        <ele>84.73</ele>
        <time>2022-08-07T14:16:03Z</time>
      </trkpt>
      <trkpt lat="44.83145" lon="1.23434">
        <ele>84.73</ele>
        <time>2022-08-07T14:16:04Z</time>
      </trkpt>
      <trkpt lat="44.83142" lon="1.23421">
        <ele>84.25</ele>
        <time>2022-08-07T14:16:05Z</time>
      </trkpt>
      <trkpt lat="44.83137" lon="1.23409">
        <ele>83.77</ele>
        <time>2022-08-07T14:16:06Z</time>
      </trkpt>
      <trkpt lat="44.83131" lon="1.23397">
        <ele>83.77</ele>
        <time>2022-08-07T14:16:07Z</time>
      </trkpt>
      <trkpt lat="44.83124" lon="1.23386">
        <ele>83.29</ele>
        <time>2022-08-07T14:16:08Z</time>
      </trkpt>
      <trkpt lat="44.83116" lon="1.23376">
        <ele>82.81</ele>
        <time>2022-08-07T14:16:09Z</time>
      </trkpt>
      <trkpt lat="44.83107" lon="1.23368">
        <ele>82.33</ele>
        <time>2022-08-07T14:16:10Z</time>
      </trkpt>
      <trkpt lat="44.83098" lon="1.2336">
        <ele>81.85</ele>
        <time>2022-08-07T14:16:11Z</time>
      </trkpt>
      <trkpt lat="44.83052" lon="1.23309">
        <ele>79.45</ele>
        <time>2022-08-07T14:16:16Z</time>
      </trkpt>
      <trkpt lat="44.83045" lon="1.23296">
        <ele>78.97</ele>
        <time>2022-08-07T14:16:17Z</time>
      </trkpt>
      <trkpt lat="44.83039" lon="1.2328">
        <ele>78.97</ele>
        <time>2022-08-07T14:16:18Z</time>
      </trkpt>
      <trkpt lat="44.83033" lon="1.23264">
        <ele>78.48</ele>
        <time>2022-08-07T14:16:19Z</time>
      </trkpt>
      <trkpt lat="44.83029" lon="1.23248">
        <ele>78</ele>
        <time>2022-08-07T14:16:20Z</time>
      </trkpt>
      <trkpt lat="44.83026" lon="1.2323">
        <ele>77.52</ele>
        <time>2022-08-07T14:16:21Z</time>
      </trkpt>
      <trkpt lat="44.83024" lon="1.23213">
        <ele>77.04</ele>
        <time>2022-08-07T14:16:22Z</time>
      </trkpt>
      <trkpt lat="44.83022" lon="1.23196">
        <ele>76.56</ele>
        <time>2022-08-07T14:16:23Z</time>
      </trkpt>
      <trkpt lat="44.82991" lon="1.23">
        <ele>76.08</ele>
        <time>2022-08-07T14:16:36Z</time>
      </trkpt>
      <trkpt lat="44.82942" lon="1.22846">
        <ele>76.08</ele>
        <time>2022-08-07T14:16:49Z</time>
      </trkpt>
      <trkpt lat="44.82859" lon="1.22699">
        <ele>75.12</ele>
        <time>2022-08-07T14:17:05Z</time>
      </trkpt>
      <trkpt lat="44.82767" lon="1.2259">
        <ele>75.6</ele>
        <time>2022-08-07T14:17:20Z</time>
      </trkpt>
      <trkpt lat="44.82723" lon="1.22517">
        <ele>76.08</ele>
        <time>2022-08-07T14:17:29Z</time>
      </trkpt>
      <trkpt lat="44.8272" lon="1.22508">
        <ele>76.08</ele>
        <time>2022-08-07T14:17:30Z</time>
      </trkpt>
      <trkpt lat="44.82718" lon="1.22497">
        <ele>76.08</ele>
        <time>2022-08-07T14:17:31Z</time>
      </trkpt>
      <trkpt lat="44.82705" lon="1.22439">
        <ele>75.6</ele>
        <time>2022-08-07T14:17:37Z</time>
      </trkpt>
      <trkpt lat="44.82705" lon="1.2243">
        <ele>75.6</ele>
        <time>2022-08-07T14:17:38Z</time>
      </trkpt>
      <trkpt lat="44.82706" lon="1.2242">
        <ele>75.12</ele>
        <time>2022-08-07T14:17:39Z</time>
      </trkpt>
      <trkpt lat="44.82708" lon="1.22412">
        <ele>74.64</ele>
        <time>2022-08-07T14:17:40Z</time>
      </trkpt>
      <trkpt lat="44.8271" lon="1.22403">
        <ele>74.64</ele>
        <time>2022-08-07T14:17:41Z</time>
      </trkpt>
      <trkpt lat="44.82713" lon="1.22395">
        <ele>74.16</ele>
        <time>2022-08-07T14:17:42Z</time>
      </trkpt>
      <trkpt lat="44.82716" lon="1.22387">
        <ele>73.68</ele>
        <time>2022-08-07T14:17:43Z</time>
      </trkpt>
      <trkpt lat="44.82719" lon="1.2238">
        <ele>73.68</ele>
        <time>2022-08-07T14:17:44Z</time>
      </trkpt>
      <trkpt lat="44.82722" lon="1.22372">
        <ele>73.2</ele>
        <time>2022-08-07T14:17:45Z</time>
      </trkpt>
      <trkpt lat="44.82745" lon="1.22314">
        <ele>70.79</ele>
        <time>2022-08-07T14:17:56Z</time>
      </trkpt>
      <trkpt lat="44.82744" lon="1.22301">
        <ele>71.76</ele>
        <time>2022-08-07T14:18:00Z</time>
      </trkpt>
      <trkpt lat="44.82742" lon="1.22297">
        <ele>72.24</ele>
        <time>2022-08-07T14:18:01Z</time>
      </trkpt>
      <trkpt lat="44.82708" lon="1.22231">
        <ele>78</ele>
        <time>2022-08-07T14:18:16Z</time>
      </trkpt>
      <trkpt lat="44.82692" lon="1.22158">
        <ele>79.93</ele>
        <time>2022-08-07T14:18:30Z</time>
      </trkpt>
      <trkpt lat="44.82659" lon="1.22077">
        <ele>82.33</ele>
        <time>2022-08-07T14:18:49Z</time>
      </trkpt>
      <trkpt lat="44.82637" lon="1.21999">
        <ele>85.69</ele>
        <time>2022-08-07T14:19:06Z</time>
      </trkpt>
      <trkpt lat="44.82626" lon="1.21915">
        <ele>90.02</ele>
        <time>2022-08-07T14:19:23Z</time>
      </trkpt>
      <trkpt lat="44.82613" lon="1.21812">
        <ele>94.35</ele>
        <time>2022-08-07T14:19:45Z</time>
      </trkpt>
      <trkpt lat="44.82599" lon="1.21722">
        <ele>97.23</ele>
        <time>2022-08-07T14:20:04Z</time>
      </trkpt>
      <trkpt lat="44.82565" lon="1.2165">
        <ele>97.71</ele>
        <time>2022-08-07T14:20:19Z</time>
      </trkpt>
      <trkpt lat="44.82491" lon="1.21535">
        <ele>94.35</ele>
        <time>2022-08-07T14:20:36Z</time>
      </trkpt>
      <trkpt lat="44.8242" lon="1.21394">
        <ele>91.94</ele>
        <time>2022-08-07T14:20:53Z</time>
      </trkpt>
      <trkpt lat="44.82382" lon="1.2136">
        <ele>90.5</ele>
        <time>2022-08-07T14:20:59Z</time>
      </trkpt>
      <trkpt lat="44.82375" lon="1.21357">
        <ele>90.5</ele>
        <time>2022-08-07T14:21:00Z</time>
      </trkpt>
      <trkpt lat="44.82368" lon="1.21354">
        <ele>90.02</ele>
        <time>2022-08-07T14:21:01Z</time>
      </trkpt>
      <trkpt lat="44.8236" lon="1.21352">
        <ele>90.02</ele>
        <time>2022-08-07T14:21:02Z</time>
      </trkpt>
      <trkpt lat="44.82353" lon="1.21351">
        <ele>89.54</ele>
        <time>2022-08-07T14:21:03Z</time>
      </trkpt>
      <trkpt lat="44.82345" lon="1.2135">
        <ele>89.54</ele>
        <time>2022-08-07T14:21:04Z</time>
      </trkpt>
      <trkpt lat="44.82337" lon="1.21351">
        <ele>89.54</ele>
        <time>2022-08-07T14:21:05Z</time>
      </trkpt>
      <trkpt lat="44.8221" lon="1.21371">
        <ele>84.73</ele>
        <time>2022-08-07T14:21:20Z</time>
      </trkpt>
      <trkpt lat="44.82065" lon="1.21381">
        <ele>81.85</ele>
        <time>2022-08-07T14:21:37Z</time>
      </trkpt>
      <trkpt lat="44.81929" lon="1.21387">
        <ele>79.45</ele>
        <time>2022-08-07T14:21:52Z</time>
      </trkpt>
      <trkpt lat="44.81808" lon="1.21419">
        <ele>75.6</ele>
        <time>2022-08-07T14:22:06Z</time>
      </trkpt>
      <trkpt lat="44.81657" lon="1.21405">
        <ele>75.12</ele>
        <time>2022-08-07T14:22:25Z</time>
      </trkpt>
      <trkpt lat="44.81533" lon="1.21379">
        <ele>74.16</ele>
        <time>2022-08-07T14:22:42Z</time>
      </trkpt>
      <trkpt lat="44.81526" lon="1.21376">
        <ele>74.16</ele>
        <time>2022-08-07T14:22:43Z</time>
      </trkpt>
      <trkpt lat="44.81438" lon="1.21297">
        <ele>73.68</ele>
        <time>2022-08-07T14:22:57Z</time>
      </trkpt>
      <trkpt lat="44.81331" lon="1.21149">
        <ele>74.16</ele>
        <time>2022-08-07T14:23:17Z</time>
      </trkpt>
      <trkpt lat="44.81223" lon="1.21002">
        <ele>73.68</ele>
        <time>2022-08-07T14:23:37Z</time>
      </trkpt>
      <trkpt lat="44.81123" lon="1.20865">
        <ele>74.16</ele>
        <time>2022-08-07T14:23:57Z</time>
      </trkpt>
      <trkpt lat="44.81032" lon="1.2074">
        <ele>73.68</ele>
        <time>2022-08-07T14:24:15Z</time>
      </trkpt>
      <trkpt lat="44.80938" lon="1.20616">
        <ele>73.2</ele>
        <time>2022-08-07T14:24:33Z</time>
      </trkpt>
      <trkpt lat="44.80851" lon="1.20558">
        <ele>72.72</ele>
        <time>2022-08-07T14:24:46Z</time>
      </trkpt>
      <trkpt lat="44.80729" lon="1.20515">
        <ele>72.72</ele>
        <time>2022-08-07T14:25:03Z</time>
      </trkpt>
      <trkpt lat="44.80598" lon="1.2047">
        <ele>73.68</ele>
        <time>2022-08-07T14:25:23Z</time>
      </trkpt>
      <trkpt lat="44.80439" lon="1.20414">
        <ele>72.24</ele>
        <time>2022-08-07T14:25:46Z</time>
      </trkpt>
      <trkpt lat="44.80321" lon="1.20372">
        <ele>70.31</ele>
        <time>2022-08-07T14:26:03Z</time>
      </trkpt>
      <trkpt lat="44.8021" lon="1.20337">
        <ele>69.83</ele>
        <time>2022-08-07T14:26:20Z</time>
      </trkpt>
      <trkpt lat="44.80204" lon="1.20338">
        <ele>69.83</ele>
        <time>2022-08-07T14:26:21Z</time>
      </trkpt>
      <trkpt lat="44.80133" lon="1.20355">
        <ele>74.64</ele>
        <time>2022-08-07T14:26:33Z</time>
      </trkpt>
      <trkpt lat="44.80127" lon="1.20359">
        <ele>74.64</ele>
        <time>2022-08-07T14:26:34Z</time>
      </trkpt>
      <trkpt lat="44.80122" lon="1.20363">
        <ele>74.64</ele>
        <time>2022-08-07T14:26:35Z</time>
      </trkpt>
      <trkpt lat="44.80097" lon="1.20383">
        <ele>77.04</ele>
        <time>2022-08-07T14:26:44Z</time>
      </trkpt>
      <trkpt lat="44.80073" lon="1.20417">
        <ele>82.33</ele>
        <time>2022-08-07T14:27:01Z</time>
      </trkpt>
      <trkpt lat="44.80057" lon="1.20442">
        <ele>84.25</ele>
        <time>2022-08-07T14:27:13Z</time>
      </trkpt>
      <trkpt lat="44.8004" lon="1.20471">
        <ele>87.14</ele>
        <time>2022-08-07T14:27:26Z</time>
      </trkpt>
      <trkpt lat="44.80016" lon="1.20507">
        <ele>90.5</ele>
        <time>2022-08-07T14:27:42Z</time>
      </trkpt>
      <trkpt lat="44.80001" lon="1.20542">
        <ele>92.9</ele>
        <time>2022-08-07T14:27:58Z</time>
      </trkpt>
      <trkpt lat="44.79999" lon="1.20567">
        <ele>93.39</ele>
        <time>2022-08-07T14:28:09Z</time>
      </trkpt>
      <trkpt lat="44.79997" lon="1.20596">
        <ele>94.35</ele>
        <time>2022-08-07T14:28:21Z</time>
      </trkpt>
      <trkpt lat="44.79995" lon="1.20604">
        <ele>94.83</ele>
        <time>2022-08-07T14:28:24Z</time>
      </trkpt>
      <trkpt lat="44.79998" lon="1.20638">
        <ele>93.87</ele>
        <time>2022-08-07T14:28:38Z</time>
      </trkpt>
      <trkpt lat="44.80001" lon="1.20668">
        <ele>94.35</ele>
        <time>2022-08-07T14:28:50Z</time>
      </trkpt>
      <trkpt lat="44.80002" lon="1.20687">
        <ele>93.87</ele>
        <time>2022-08-07T14:28:58Z</time>
      </trkpt>
      <trkpt lat="44.79999" lon="1.20705">
        <ele>97.23</ele>
        <time>2022-08-07T14:29:04Z</time>
      </trkpt>
      <trkpt lat="44.8001" lon="1.20738">
        <ele>103.96</ele>
        <time>2022-08-07T14:29:19Z</time>
      </trkpt>
      <trkpt lat="44.80025" lon="1.20764">
        <ele>108.77</ele>
        <time>2022-08-07T14:29:34Z</time>
      </trkpt>
      <trkpt lat="44.8004" lon="1.20786">
        <ele>115.01</ele>
        <time>2022-08-07T14:29:47Z</time>
      </trkpt>
      <trkpt lat="44.80056" lon="1.20813">
        <ele>122.22</ele>
        <time>2022-08-07T14:30:03Z</time>
      </trkpt>
      <trkpt lat="44.80076" lon="1.20843">
        <ele>127.03</ele>
        <time>2022-08-07T14:30:18Z</time>
      </trkpt>
      <trkpt lat="44.8009" lon="1.20869">
        <ele>130.88</ele>
        <time>2022-08-07T14:30:31Z</time>
      </trkpt>
      <trkpt lat="44.80111" lon="1.20898">
        <ele>133.28</ele>
        <time>2022-08-07T14:30:47Z</time>
      </trkpt>
      <trkpt lat="44.80112" lon="1.209">
        <ele>133.76</ele>
        <time>2022-08-07T14:30:48Z</time>
      </trkpt>
      <trkpt lat="44.80131" lon="1.20934">
        <ele>138.57</ele>
        <time>2022-08-07T14:31:06Z</time>
      </trkpt>
      <trkpt lat="44.80141" lon="1.20965">
        <ele>141.93</ele>
        <time>2022-08-07T14:31:20Z</time>
      </trkpt>
      <trkpt lat="44.80143" lon="1.20996">
        <ele>145.78</ele>
        <time>2022-08-07T14:31:33Z</time>
      </trkpt>
      <trkpt lat="44.80145" lon="1.21032">
        <ele>149.14</ele>
        <time>2022-08-07T14:31:47Z</time>
      </trkpt>
      <trkpt lat="44.80146" lon="1.21064">
        <ele>152.03</ele>
        <time>2022-08-07T14:32:00Z</time>
      </trkpt>
      <trkpt lat="44.80148" lon="1.21094">
        <ele>154.43</ele>
        <time>2022-08-07T14:32:13Z</time>
      </trkpt>
      <trkpt lat="44.80149" lon="1.21106">
        <ele>154.91</ele>
        <time>2022-08-07T14:32:18Z</time>
      </trkpt>
      <trkpt lat="44.80149" lon="1.21108">
        <ele>154.91</ele>
        <time>2022-08-07T14:32:19Z</time>
      </trkpt>
      <trkpt lat="44.80149" lon="1.2111">
        <ele>154.91</ele>
        <time>2022-08-07T14:32:20Z</time>
      </trkpt>
      <trkpt lat="44.80148" lon="1.21113">
        <ele>154.91</ele>
        <time>2022-08-07T14:32:21Z</time>
      </trkpt>
      <trkpt lat="44.80148" lon="1.21116">
        <ele>155.39</ele>
        <time>2022-08-07T14:32:22Z</time>
      </trkpt>
      <trkpt lat="44.80136" lon="1.21161">
        <ele>159.24</ele>
        <time>2022-08-07T14:32:39Z</time>
      </trkpt>
      <trkpt lat="44.80127" lon="1.21191">
        <ele>162.6</ele>
        <time>2022-08-07T14:32:52Z</time>
      </trkpt>
      <trkpt lat="44.8011" lon="1.21229">
        <ele>166.93</ele>
        <time>2022-08-07T14:33:08Z</time>
      </trkpt>
      <trkpt lat="44.80097" lon="1.21266">
        <ele>167.41</ele>
        <time>2022-08-07T14:33:22Z</time>
      </trkpt>
      <trkpt lat="44.80071" lon="1.21314">
        <ele>172.21</ele>
        <time>2022-08-07T14:33:41Z</time>
      </trkpt>
      <trkpt lat="44.80044" lon="1.21341">
        <ele>176.06</ele>
        <time>2022-08-07T14:33:56Z</time>
      </trkpt>
      <trkpt lat="44.8004" lon="1.21354">
        <ele>177.02</ele>
        <time>2022-08-07T14:34:02Z</time>
      </trkpt>
      <trkpt lat="44.80041" lon="1.21356">
        <ele>177.02</ele>
        <time>2022-08-07T14:34:03Z</time>
      </trkpt>
      <trkpt lat="44.80043" lon="1.2136">
        <ele>177.02</ele>
        <time>2022-08-07T14:34:05Z</time>
      </trkpt>
      <trkpt lat="44.80045" lon="1.21361">
        <ele>177.02</ele>
        <time>2022-08-07T14:34:06Z</time>
      </trkpt>
      <trkpt lat="44.80047" lon="1.21361">
        <ele>177.02</ele>
        <time>2022-08-07T14:34:07Z</time>
      </trkpt>
      <trkpt lat="44.80049" lon="1.21361">
        <ele>177.02</ele>
        <time>2022-08-07T14:34:08Z</time>
      </trkpt>
      <trkpt lat="44.80051" lon="1.21361">
        <ele>177.02</ele>
        <time>2022-08-07T14:34:09Z</time>
      </trkpt>
      <trkpt lat="44.80074" lon="1.21359">
        <ele>177.5</ele>
        <time>2022-08-07T14:34:21Z</time>
      </trkpt>
      <trkpt lat="44.80099" lon="1.2135">
        <ele>178.94</ele>
        <time>2022-08-07T14:34:35Z</time>
      </trkpt>
      <trkpt lat="44.80113" lon="1.21306">
        <ele>179.42</ele>
        <time>2022-08-07T14:34:47Z</time>
      </trkpt>
      <trkpt lat="44.80116" lon="1.21291">
        <ele>177.98</ele>
        <time>2022-08-07T14:34:56Z</time>
      </trkpt>
      <trkpt lat="44.80127" lon="1.21291">
        <ele>175.58</ele>
        <time>2022-08-07T14:35:30Z</time>
      </trkpt>
      <trkpt lat="44.80127" lon="1.21286">
        <ele>181.83</ele>
        <time>2022-08-07T14:35:49Z</time>
      </trkpt>
      <trkpt lat="44.80128" lon="1.21285">
        <ele>182.31</ele>
        <time>2022-08-07T14:35:50Z</time>
      </trkpt>
      <trkpt lat="44.80129" lon="1.21282">
        <ele>182.31</ele>
        <time>2022-08-07T14:35:51Z</time>
      </trkpt>
      <trkpt lat="44.8013" lon="1.21278">
        <ele>182.31</ele>
        <time>2022-08-07T14:35:52Z</time>
      </trkpt>
      <trkpt lat="44.80131" lon="1.21273">
        <ele>182.31</ele>
        <time>2022-08-07T14:35:53Z</time>
      </trkpt>
      <trkpt lat="44.80131" lon="1.21269">
        <ele>182.31</ele>
        <time>2022-08-07T14:35:54Z</time>
      </trkpt>
      <trkpt lat="44.80132" lon="1.21263">
        <ele>182.31</ele>
        <time>2022-08-07T14:35:55Z</time>
      </trkpt>
      <trkpt lat="44.80135" lon="1.21252">
        <ele>181.83</ele>
        <time>2022-08-07T14:35:57Z</time>
      </trkpt>
      <trkpt lat="44.80137" lon="1.21246">
        <ele>180.87</ele>
        <time>2022-08-07T14:35:58Z</time>
      </trkpt>
      <trkpt lat="44.80177" lon="1.2116">
        <ele>177.5</ele>
        <time>2022-08-07T14:36:10Z</time>
      </trkpt>
      <trkpt lat="44.8018" lon="1.2115">
        <ele>177.02</ele>
        <time>2022-08-07T14:36:11Z</time>
      </trkpt>
      <trkpt lat="44.80182" lon="1.21139">
        <ele>177.02</ele>
        <time>2022-08-07T14:36:12Z</time>
      </trkpt>
      <trkpt lat="44.80184" lon="1.21128">
        <ele>176.54</ele>
        <time>2022-08-07T14:36:13Z</time>
      </trkpt>
      <trkpt lat="44.80184" lon="1.21115">
        <ele>176.54</ele>
        <time>2022-08-07T14:36:14Z</time>
      </trkpt>
      <trkpt lat="44.80193" lon="1.20996">
        <ele>171.25</ele>
        <time>2022-08-07T14:36:23Z</time>
      </trkpt>
      <trkpt lat="44.80201" lon="1.20953">
        <ele>169.81</ele>
        <time>2022-08-07T14:36:26Z</time>
      </trkpt>
      <trkpt lat="44.80201" lon="1.20939">
        <ele>168.85</ele>
        <time>2022-08-07T14:36:27Z</time>
      </trkpt>
      <trkpt lat="44.802" lon="1.20924">
        <ele>168.37</ele>
        <time>2022-08-07T14:36:28Z</time>
      </trkpt>
      <trkpt lat="44.80197" lon="1.20909">
        <ele>167.89</ele>
        <time>2022-08-07T14:36:29Z</time>
      </trkpt>
      <trkpt lat="44.80193" lon="1.20895">
        <ele>167.41</ele>
        <time>2022-08-07T14:36:30Z</time>
      </trkpt>
      <trkpt lat="44.80188" lon="1.20882">
        <ele>166.93</ele>
        <time>2022-08-07T14:36:31Z</time>
      </trkpt>
      <trkpt lat="44.80181" lon="1.2087">
        <ele>166.45</ele>
        <time>2022-08-07T14:36:32Z</time>
      </trkpt>
      <trkpt lat="44.80173" lon="1.20859">
        <ele>165.48</ele>
        <time>2022-08-07T14:36:33Z</time>
      </trkpt>
      <trkpt lat="44.80165" lon="1.20849">
        <ele>165</ele>
        <time>2022-08-07T14:36:34Z</time>
      </trkpt>
      <trkpt lat="44.80156" lon="1.2084">
        <ele>164.04</ele>
        <time>2022-08-07T14:36:35Z</time>
      </trkpt>
      <trkpt lat="44.8013" lon="1.20808">
        <ele>161.64</ele>
        <time>2022-08-07T14:36:38Z</time>
      </trkpt>
      <trkpt lat="44.80123" lon="1.20796">
        <ele>160.68</ele>
        <time>2022-08-07T14:36:39Z</time>
      </trkpt>
      <trkpt lat="44.8008" lon="1.20665">
        <ele>156.83</ele>
        <time>2022-08-07T14:36:48Z</time>
      </trkpt>
      <trkpt lat="44.80079" lon="1.20651">
        <ele>156.35</ele>
        <time>2022-08-07T14:36:49Z</time>
      </trkpt>
      <trkpt lat="44.8008" lon="1.20636">
        <ele>155.87</ele>
        <time>2022-08-07T14:36:50Z</time>
      </trkpt>
      <trkpt lat="44.80084" lon="1.20622">
        <ele>155.39</ele>
        <time>2022-08-07T14:36:51Z</time>
      </trkpt>
      <trkpt lat="44.80089" lon="1.20609">
        <ele>154.43</ele>
        <time>2022-08-07T14:36:52Z</time>
      </trkpt>
      <trkpt lat="44.80096" lon="1.20597">
        <ele>153.95</ele>
        <time>2022-08-07T14:36:53Z</time>
      </trkpt>
      <trkpt lat="44.80104" lon="1.20586">
        <ele>153.47</ele>
        <time>2022-08-07T14:36:54Z</time>
      </trkpt>
      <trkpt lat="44.80112" lon="1.20577">
        <ele>152.99</ele>
        <time>2022-08-07T14:36:55Z</time>
      </trkpt>
      <trkpt lat="44.80122" lon="1.20568">
        <ele>152.51</ele>
        <time>2022-08-07T14:36:56Z</time>
      </trkpt>
      <trkpt lat="44.80131" lon="1.20562">
        <ele>152.03</ele>
        <time>2022-08-07T14:36:57Z</time>
      </trkpt>
      <trkpt lat="44.80141" lon="1.20559">
        <ele>151.54</ele>
        <time>2022-08-07T14:36:58Z</time>
      </trkpt>
      <trkpt lat="44.80151" lon="1.2056">
        <ele>151.06</ele>
        <time>2022-08-07T14:36:59Z</time>
      </trkpt>
      <trkpt lat="44.80161" lon="1.20564">
        <ele>150.58</ele>
        <time>2022-08-07T14:37:00Z</time>
      </trkpt>
      <trkpt lat="44.80171" lon="1.2057">
        <ele>150.58</ele>
        <time>2022-08-07T14:37:01Z</time>
      </trkpt>
      <trkpt lat="44.8018" lon="1.20579">
        <ele>150.58</ele>
        <time>2022-08-07T14:37:02Z</time>
      </trkpt>
      <trkpt lat="44.80187" lon="1.2059">
        <ele>150.58</ele>
        <time>2022-08-07T14:37:03Z</time>
      </trkpt>
      <trkpt lat="44.80193" lon="1.20601">
        <ele>150.58</ele>
        <time>2022-08-07T14:37:04Z</time>
      </trkpt>
      <trkpt lat="44.80282" lon="1.20709">
        <ele>149.62</ele>
        <time>2022-08-07T14:37:15Z</time>
      </trkpt>
      <trkpt lat="44.80288" lon="1.20722">
        <ele>149.62</ele>
        <time>2022-08-07T14:37:16Z</time>
      </trkpt>
      <trkpt lat="44.80333" lon="1.20854">
        <ele>148.66</ele>
        <time>2022-08-07T14:37:26Z</time>
      </trkpt>
      <trkpt lat="44.80348" lon="1.20892">
        <ele>148.66</ele>
        <time>2022-08-07T14:37:29Z</time>
      </trkpt>
      <trkpt lat="44.80396" lon="1.20973">
        <ele>148.18</ele>
        <time>2022-08-07T14:37:36Z</time>
      </trkpt>
      <trkpt lat="44.80432" lon="1.21092">
        <ele>146.74</ele>
        <time>2022-08-07T14:37:45Z</time>
      </trkpt>
      <trkpt lat="44.80434" lon="1.21098">
        <ele>146.74</ele>
        <time>2022-08-07T14:37:46Z</time>
      </trkpt>
      <trkpt lat="44.80439" lon="1.211">
        <ele>146.26</ele>
        <time>2022-08-07T14:37:47Z</time>
      </trkpt>
      <trkpt lat="44.80444" lon="1.21098">
        <ele>145.78</ele>
        <time>2022-08-07T14:37:48Z</time>
      </trkpt>
      <trkpt lat="44.80449" lon="1.21093">
        <ele>145.78</ele>
        <time>2022-08-07T14:37:49Z</time>
      </trkpt>
      <trkpt lat="44.80452" lon="1.21084">
        <ele>145.78</ele>
        <time>2022-08-07T14:37:50Z</time>
      </trkpt>
      <trkpt lat="44.80452" lon="1.21075">
        <ele>145.78</ele>
        <time>2022-08-07T14:37:51Z</time>
      </trkpt>
      <trkpt lat="44.80449" lon="1.21064">
        <ele>145.3</ele>
        <time>2022-08-07T14:37:52Z</time>
      </trkpt>
      <trkpt lat="44.80446" lon="1.21053">
        <ele>145.3</ele>
        <time>2022-08-07T14:37:53Z</time>
      </trkpt>
      <trkpt lat="44.80409" lon="1.20898">
        <ele>139.05</ele>
        <time>2022-08-07T14:38:04Z</time>
      </trkpt>
      <trkpt lat="44.80391" lon="1.2083">
        <ele>133.76</ele>
        <time>2022-08-07T14:38:11Z</time>
      </trkpt>
      <trkpt lat="44.8038" lon="1.20807">
        <ele>131.36</ele>
        <time>2022-08-07T14:38:19Z</time>
      </trkpt>
      <trkpt lat="44.80378" lon="1.208">
        <ele>131.36</ele>
        <time>2022-08-07T14:38:20Z</time>
      </trkpt>
      <trkpt lat="44.80361" lon="1.20758">
        <ele>129.92</ele>
        <time>2022-08-07T14:38:25Z</time>
      </trkpt>
      <trkpt lat="44.80319" lon="1.20633">
        <ele>128.47</ele>
        <time>2022-08-07T14:38:34Z</time>
      </trkpt>
      <trkpt lat="44.80269" lon="1.20479">
        <ele>121.74</ele>
        <time>2022-08-07T14:38:44Z</time>
      </trkpt>
      <trkpt lat="44.80219" lon="1.20347">
        <ele>114.53</ele>
        <time>2022-08-07T14:38:54Z</time>
      </trkpt>
      <trkpt lat="44.80216" lon="1.20335">
        <ele>108.29</ele>
        <time>2022-08-07T14:38:58Z</time>
      </trkpt>
      <trkpt lat="44.80216" lon="1.20334">
        <ele>107.32</ele>
        <time>2022-08-07T14:38:59Z</time>
      </trkpt>
      <trkpt lat="44.80216" lon="1.20331">
        <ele>106.84</ele>
        <time>2022-08-07T14:39:00Z</time>
      </trkpt>
      <trkpt lat="44.80218" lon="1.20329">
        <ele>105.88</ele>
        <time>2022-08-07T14:39:01Z</time>
      </trkpt>
      <trkpt lat="44.8022" lon="1.20328">
        <ele>105.4</ele>
        <time>2022-08-07T14:39:02Z</time>
      </trkpt>
      <trkpt lat="44.80223" lon="1.20327">
        <ele>104.92</ele>
        <time>2022-08-07T14:39:03Z</time>
      </trkpt>
      <trkpt lat="44.80226" lon="1.20329">
        <ele>103.96</ele>
        <time>2022-08-07T14:39:04Z</time>
      </trkpt>
      <trkpt lat="44.80229" lon="1.20331">
        <ele>103</ele>
        <time>2022-08-07T14:39:05Z</time>
      </trkpt>
      <trkpt lat="44.80279" lon="1.20352">
        <ele>99.63</ele>
        <time>2022-08-07T14:39:17Z</time>
      </trkpt>
      <trkpt lat="44.80357" lon="1.20385">
        <ele>91.46</ele>
        <time>2022-08-07T14:39:33Z</time>
      </trkpt>
      <trkpt lat="44.80448" lon="1.20422">
        <ele>80.89</ele>
        <time>2022-08-07T14:39:51Z</time>
      </trkpt>
      <trkpt lat="44.80548" lon="1.20456">
        <ele>78</ele>
        <time>2022-08-07T14:40:11Z</time>
      </trkpt>
      <trkpt lat="44.80625" lon="1.20484">
        <ele>76.08</ele>
        <time>2022-08-07T14:40:26Z</time>
      </trkpt>
      <trkpt lat="44.80713" lon="1.20515">
        <ele>74.64</ele>
        <time>2022-08-07T14:40:43Z</time>
      </trkpt>
      <trkpt lat="44.80798" lon="1.20543">
        <ele>73.2</ele>
        <time>2022-08-07T14:40:56Z</time>
      </trkpt>
      <trkpt lat="44.80859" lon="1.20564">
        <ele>73.2</ele>
        <time>2022-08-07T14:41:06Z</time>
      </trkpt>
      <trkpt lat="44.80866" lon="1.20559">
        <ele>72.72</ele>
        <time>2022-08-07T14:41:08Z</time>
      </trkpt>
      <trkpt lat="44.80868" lon="1.20551">
        <ele>72.72</ele>
        <time>2022-08-07T14:41:09Z</time>
      </trkpt>
      <trkpt lat="44.80869" lon="1.20541">
        <ele>72.72</ele>
        <time>2022-08-07T14:41:10Z</time>
      </trkpt>
      <trkpt lat="44.80869" lon="1.20534">
        <ele>72.72</ele>
        <time>2022-08-07T14:41:11Z</time>
      </trkpt>
      <trkpt lat="44.8087" lon="1.20393">
        <ele>72.24</ele>
        <time>2022-08-07T14:41:30Z</time>
      </trkpt>
      <trkpt lat="44.80869" lon="1.20264">
        <ele>73.2</ele>
        <time>2022-08-07T14:41:47Z</time>
      </trkpt>
      <trkpt lat="44.80869" lon="1.20095">
        <ele>73.68</ele>
        <time>2022-08-07T14:42:08Z</time>
      </trkpt>
      <trkpt lat="44.80882" lon="1.19943">
        <ele>73.68</ele>
        <time>2022-08-07T14:42:28Z</time>
      </trkpt>
      <trkpt lat="44.80921" lon="1.19819">
        <ele>72.72</ele>
        <time>2022-08-07T14:42:45Z</time>
      </trkpt>
      <trkpt lat="44.80961" lon="1.19755">
        <ele>72.72</ele>
        <time>2022-08-07T14:42:56Z</time>
      </trkpt>
      <trkpt lat="44.80975" lon="1.19744">
        <ele>73.2</ele>
        <time>2022-08-07T14:42:59Z</time>
      </trkpt>
      <trkpt lat="44.8099" lon="1.19737">
        <ele>73.2</ele>
        <time>2022-08-07T14:43:02Z</time>
      </trkpt>
      <trkpt lat="44.81089" lon="1.19718">
        <ele>71.76</ele>
        <time>2022-08-07T14:43:18Z</time>
      </trkpt>
      <trkpt lat="44.81198" lon="1.19669">
        <ele>70.31</ele>
        <time>2022-08-07T14:43:36Z</time>
      </trkpt>
      <trkpt lat="44.81282" lon="1.19604">
        <ele>71.76</ele>
        <time>2022-08-07T14:43:52Z</time>
      </trkpt>
      <trkpt lat="44.81376" lon="1.19531">
        <ele>72.72</ele>
        <time>2022-08-07T14:44:11Z</time>
      </trkpt>
      <trkpt lat="44.81473" lon="1.19455">
        <ele>75.12</ele>
        <time>2022-08-07T14:44:31Z</time>
      </trkpt>
      <trkpt lat="44.81564" lon="1.19388">
        <ele>73.68</ele>
        <time>2022-08-07T14:44:49Z</time>
      </trkpt>
      <trkpt lat="44.81638" lon="1.19333">
        <ele>73.68</ele>
        <time>2022-08-07T14:45:04Z</time>
      </trkpt>
      <trkpt lat="44.81731" lon="1.19251">
        <ele>73.68</ele>
        <time>2022-08-07T14:45:22Z</time>
      </trkpt>
      <trkpt lat="44.81809" lon="1.19181">
        <ele>71.76</ele>
        <time>2022-08-07T14:45:39Z</time>
      </trkpt>
      <trkpt lat="44.81883" lon="1.19114">
        <ele>70.31</ele>
        <time>2022-08-07T14:45:55Z</time>
      </trkpt>
      <trkpt lat="44.81954" lon="1.19049">
        <ele>70.79</ele>
        <time>2022-08-07T14:46:11Z</time>
      </trkpt>
      <trkpt lat="44.82042" lon="1.1897">
        <ele>69.83</ele>
        <time>2022-08-07T14:46:29Z</time>
      </trkpt>
      <trkpt lat="44.82127" lon="1.18893">
        <ele>68.87</ele>
        <time>2022-08-07T14:46:47Z</time>
      </trkpt>
      <trkpt lat="44.82244" lon="1.18786">
        <ele>68.87</ele>
        <time>2022-08-07T14:47:10Z</time>
      </trkpt>
      <trkpt lat="44.82337" lon="1.18694">
        <ele>68.39</ele>
        <time>2022-08-07T14:47:29Z</time>
      </trkpt>
      <trkpt lat="44.8241" lon="1.18604">
        <ele>68.87</ele>
        <time>2022-08-07T14:47:45Z</time>
      </trkpt>
      <trkpt lat="44.82464" lon="1.18516">
        <ele>67.91</ele>
        <time>2022-08-07T14:48:00Z</time>
      </trkpt>
      <trkpt lat="44.82515" lon="1.18411">
        <ele>67.43</ele>
        <time>2022-08-07T14:48:18Z</time>
      </trkpt>
      <trkpt lat="44.82543" lon="1.1834">
        <ele>67.91</ele>
        <time>2022-08-07T14:48:31Z</time>
      </trkpt>
      <trkpt lat="44.82548" lon="1.1833">
        <ele>67.43</ele>
        <time>2022-08-07T14:48:45Z</time>
      </trkpt>
      <trkpt lat="44.82565" lon="1.18286">
        <ele>68.39</ele>
        <time>2022-08-07T14:48:57Z</time>
      </trkpt>
      <trkpt lat="44.82601" lon="1.18195">
        <ele>67.91</ele>
        <time>2022-08-07T14:49:15Z</time>
      </trkpt>
      <trkpt lat="44.82629" lon="1.18123">
        <ele>67.43</ele>
        <time>2022-08-07T14:49:29Z</time>
      </trkpt>
      <trkpt lat="44.82662" lon="1.18019">
        <ele>68.39</ele>
        <time>2022-08-07T14:49:46Z</time>
      </trkpt>
      <trkpt lat="44.82697" lon="1.17918">
        <ele>69.83</ele>
        <time>2022-08-07T14:50:04Z</time>
      </trkpt>
      <trkpt lat="44.82708" lon="1.17893">
        <ele>70.31</ele>
        <time>2022-08-07T14:50:10Z</time>
      </trkpt>
      <trkpt lat="44.82711" lon="1.17893">
        <ele>70.31</ele>
        <time>2022-08-07T14:50:11Z</time>
      </trkpt>
      <trkpt lat="44.82713" lon="1.17894">
        <ele>70.79</ele>
        <time>2022-08-07T14:50:12Z</time>
      </trkpt>
      <trkpt lat="44.82716" lon="1.17896">
        <ele>71.27</ele>
        <time>2022-08-07T14:50:13Z</time>
      </trkpt>
      <trkpt lat="44.82717" lon="1.17897">
        <ele>71.76</ele>
        <time>2022-08-07T14:50:14Z</time>
      </trkpt>
      <trkpt lat="44.82718" lon="1.17899">
        <ele>71.76</ele>
        <time>2022-08-07T14:50:15Z</time>
      </trkpt>
      <trkpt lat="44.82719" lon="1.17902">
        <ele>71.76</ele>
        <time>2022-08-07T14:50:16Z</time>
      </trkpt>
      <trkpt lat="44.82719" lon="1.17904">
        <ele>71.76</ele>
        <time>2022-08-07T14:50:17Z</time>
      </trkpt>
      <trkpt lat="44.8272" lon="1.17907">
        <ele>71.76</ele>
        <time>2022-08-07T14:50:18Z</time>
      </trkpt>
      <trkpt lat="44.8272" lon="1.17909">
        <ele>71.27</ele>
        <time>2022-08-07T14:50:19Z</time>
      </trkpt>
      <trkpt lat="44.82721" lon="1.17911">
        <ele>71.27</ele>
        <time>2022-08-07T14:50:20Z</time>
      </trkpt>
      <trkpt lat="44.82722" lon="1.17914">
        <ele>71.76</ele>
        <time>2022-08-07T14:50:21Z</time>
      </trkpt>
      <trkpt lat="44.82723" lon="1.17916">
        <ele>71.76</ele>
        <time>2022-08-07T14:50:22Z</time>
      </trkpt>
      <trkpt lat="44.82724" lon="1.17919">
        <ele>71.76</ele>
        <time>2022-08-07T14:50:23Z</time>
      </trkpt>
      <trkpt lat="44.82726" lon="1.17921">
        <ele>72.24</ele>
        <time>2022-08-07T14:50:24Z</time>
      </trkpt>
      <trkpt lat="44.82727" lon="1.17923">
        <ele>72.24</ele>
        <time>2022-08-07T14:50:25Z</time>
      </trkpt>
      <trkpt lat="44.82729" lon="1.17925">
        <ele>72.72</ele>
        <time>2022-08-07T14:50:26Z</time>
      </trkpt>
      <trkpt lat="44.82731" lon="1.17926">
        <ele>72.72</ele>
        <time>2022-08-07T14:50:27Z</time>
      </trkpt>
      <trkpt lat="44.82757" lon="1.17934">
        <ele>77.04</ele>
        <time>2022-08-07T14:50:41Z</time>
      </trkpt>
      <trkpt lat="44.82787" lon="1.17939">
        <ele>80.41</ele>
        <time>2022-08-07T14:50:56Z</time>
      </trkpt>
      <trkpt lat="44.82811" lon="1.17943">
        <ele>80.89</ele>
        <time>2022-08-07T14:51:09Z</time>
      </trkpt>
      <trkpt lat="44.82836" lon="1.17947">
        <ele>82.81</ele>
        <time>2022-08-07T14:51:22Z</time>
      </trkpt>
      <trkpt lat="44.82861" lon="1.17957">
        <ele>84.73</ele>
        <time>2022-08-07T14:51:35Z</time>
      </trkpt>
      <trkpt lat="44.82891" lon="1.17969">
        <ele>88.58</ele>
        <time>2022-08-07T14:51:50Z</time>
      </trkpt>
      <trkpt lat="44.82927" lon="1.17986">
        <ele>94.83</ele>
        <time>2022-08-07T14:52:07Z</time>
      </trkpt>
      <trkpt lat="44.82953" lon="1.18001">
        <ele>93.39</ele>
        <time>2022-08-07T14:52:22Z</time>
      </trkpt>
      <trkpt lat="44.82975" lon="1.18007">
        <ele>93.39</ele>
        <time>2022-08-07T14:52:33Z</time>
      </trkpt>
      <trkpt lat="44.83021" lon="1.18006">
        <ele>93.39</ele>
        <time>2022-08-07T14:52:52Z</time>
      </trkpt>
      <trkpt lat="44.83062" lon="1.18002">
        <ele>94.83</ele>
        <time>2022-08-07T14:53:08Z</time>
      </trkpt>
      <trkpt lat="44.83106" lon="1.17998">
        <ele>95.79</ele>
        <time>2022-08-07T14:53:25Z</time>
      </trkpt>
      <trkpt lat="44.83142" lon="1.18004">
        <ele>94.35</ele>
        <time>2022-08-07T14:53:39Z</time>
      </trkpt>
      <trkpt lat="44.83178" lon="1.1802">
        <ele>92.42</ele>
        <time>2022-08-07T14:53:53Z</time>
      </trkpt>
      <trkpt lat="44.83212" lon="1.18034">
        <ele>93.87</ele>
        <time>2022-08-07T14:54:08Z</time>
      </trkpt>
      <trkpt lat="44.83246" lon="1.18012">
        <ele>99.63</ele>
        <time>2022-08-07T14:54:24Z</time>
      </trkpt>
      <trkpt lat="44.83276" lon="1.17994">
        <ele>101.56</ele>
        <time>2022-08-07T14:54:39Z</time>
      </trkpt>
      <trkpt lat="44.83307" lon="1.17977">
        <ele>103.96</ele>
        <time>2022-08-07T14:54:55Z</time>
      </trkpt>
      <trkpt lat="44.83333" lon="1.17978">
        <ele>103.96</ele>
        <time>2022-08-07T14:55:09Z</time>
      </trkpt>
      <trkpt lat="44.83352" lon="1.17985">
        <ele>104.92</ele>
        <time>2022-08-07T14:55:19Z</time>
      </trkpt>
      <trkpt lat="44.83354" lon="1.17986">
        <ele>104.92</ele>
        <time>2022-08-07T14:55:20Z</time>
      </trkpt>
      <trkpt lat="44.83381" lon="1.17991">
        <ele>108.29</ele>
        <time>2022-08-07T14:55:34Z</time>
      </trkpt>
      <trkpt lat="44.83414" lon="1.18001">
        <ele>111.17</ele>
        <time>2022-08-07T14:55:51Z</time>
      </trkpt>
      <trkpt lat="44.83437" lon="1.18026">
        <ele>116.46</ele>
        <time>2022-08-07T14:56:05Z</time>
      </trkpt>
      <trkpt lat="44.83449" lon="1.18046">
        <ele>116.46</ele>
        <time>2022-08-07T14:56:15Z</time>
      </trkpt>
      <trkpt lat="44.8345" lon="1.18048">
        <ele>115.98</ele>
        <time>2022-08-07T14:56:16Z</time>
      </trkpt>
      <trkpt lat="44.83458" lon="1.18068">
        <ele>115.5</ele>
        <time>2022-08-07T14:56:24Z</time>
      </trkpt>
      <trkpt lat="44.8346" lon="1.1807">
        <ele>115.5</ele>
        <time>2022-08-07T14:56:25Z</time>
      </trkpt>
      <trkpt lat="44.83461" lon="1.18072">
        <ele>115.98</ele>
        <time>2022-08-07T14:56:26Z</time>
      </trkpt>
      <trkpt lat="44.83462" lon="1.18074">
        <ele>115.98</ele>
        <time>2022-08-07T14:56:27Z</time>
      </trkpt>
      <trkpt lat="44.83462" lon="1.18077">
        <ele>115.98</ele>
        <time>2022-08-07T14:56:28Z</time>
      </trkpt>
      <trkpt lat="44.83466" lon="1.18087">
        <ele>116.46</ele>
        <time>2022-08-07T14:56:32Z</time>
      </trkpt>
      <trkpt lat="44.83467" lon="1.18089">
        <ele>116.94</ele>
        <time>2022-08-07T14:56:33Z</time>
      </trkpt>
      <trkpt lat="44.83468" lon="1.18092">
        <ele>116.94</ele>
        <time>2022-08-07T14:56:34Z</time>
      </trkpt>
      <trkpt lat="44.83468" lon="1.18094">
        <ele>116.94</ele>
        <time>2022-08-07T14:56:35Z</time>
      </trkpt>
      <trkpt lat="44.8347" lon="1.18097">
        <ele>117.9</ele>
        <time>2022-08-07T14:56:36Z</time>
      </trkpt>
      <trkpt lat="44.83471" lon="1.181">
        <ele>117.9</ele>
        <time>2022-08-07T14:56:37Z</time>
      </trkpt>
      <trkpt lat="44.83471" lon="1.18103">
        <ele>117.9</ele>
        <time>2022-08-07T14:56:38Z</time>
      </trkpt>
      <trkpt lat="44.83473" lon="1.18109">
        <ele>118.38</ele>
        <time>2022-08-07T14:56:40Z</time>
      </trkpt>
      <trkpt lat="44.83474" lon="1.18112">
        <ele>118.38</ele>
        <time>2022-08-07T14:56:41Z</time>
      </trkpt>
      <trkpt lat="44.83485" lon="1.18142">
        <ele>121.74</ele>
        <time>2022-08-07T14:56:53Z</time>
      </trkpt>
      <trkpt lat="44.8351" lon="1.18162">
        <ele>131.84</ele>
        <time>2022-08-07T14:57:07Z</time>
      </trkpt>
      <trkpt lat="44.83537" lon="1.18175">
        <ele>138.57</ele>
        <time>2022-08-07T14:57:21Z</time>
      </trkpt>
      <trkpt lat="44.83562" lon="1.18184">
        <ele>140.97</ele>
        <time>2022-08-07T14:57:34Z</time>
      </trkpt>
      <trkpt lat="44.83587" lon="1.18189">
        <ele>145.3</ele>
        <time>2022-08-07T14:57:47Z</time>
      </trkpt>
      <trkpt lat="44.83613" lon="1.18186">
        <ele>148.66</ele>
        <time>2022-08-07T14:57:59Z</time>
      </trkpt>
      <trkpt lat="44.83641" lon="1.18186">
        <ele>148.66</ele>
        <time>2022-08-07T14:58:13Z</time>
      </trkpt>
      <trkpt lat="44.83667" lon="1.18197">
        <ele>152.03</ele>
        <time>2022-08-07T14:58:26Z</time>
      </trkpt>
      <trkpt lat="44.83694" lon="1.18223">
        <ele>154.91</ele>
        <time>2022-08-07T14:58:41Z</time>
      </trkpt>
      <trkpt lat="44.83703" lon="1.18232">
        <ele>154.43</ele>
        <time>2022-08-07T14:58:46Z</time>
      </trkpt>
      <trkpt lat="44.83705" lon="1.18234">
        <ele>153.95</ele>
        <time>2022-08-07T14:58:47Z</time>
      </trkpt>
      <trkpt lat="44.83707" lon="1.18236">
        <ele>153.47</ele>
        <time>2022-08-07T14:58:48Z</time>
      </trkpt>
      <trkpt lat="44.83709" lon="1.18238">
        <ele>153.47</ele>
        <time>2022-08-07T14:58:49Z</time>
      </trkpt>
      <trkpt lat="44.83711" lon="1.1824">
        <ele>152.99</ele>
        <time>2022-08-07T14:58:50Z</time>
      </trkpt>
      <trkpt lat="44.8375" lon="1.18267">
        <ele>154.43</ele>
        <time>2022-08-07T14:59:07Z</time>
      </trkpt>
      <trkpt lat="44.83786" lon="1.18283">
        <ele>160.68</ele>
        <time>2022-08-07T14:59:22Z</time>
      </trkpt>
      <trkpt lat="44.83821" lon="1.18308">
        <ele>165</ele>
        <time>2022-08-07T14:59:38Z</time>
      </trkpt>
      <trkpt lat="44.8384" lon="1.18335">
        <ele>165.48</ele>
        <time>2022-08-07T14:59:50Z</time>
      </trkpt>
      <trkpt lat="44.83856" lon="1.18362">
        <ele>160.68</ele>
        <time>2022-08-07T15:00:01Z</time>
      </trkpt>
      <trkpt lat="44.83873" lon="1.18399">
        <ele>154.91</ele>
        <time>2022-08-07T15:00:14Z</time>
      </trkpt>
      <trkpt lat="44.83898" lon="1.18459">
        <ele>154.91</ele>
        <time>2022-08-07T15:00:29Z</time>
      </trkpt>
      <trkpt lat="44.83914" lon="1.18511">
        <ele>157.31</ele>
        <time>2022-08-07T15:00:43Z</time>
      </trkpt>
      <trkpt lat="44.83919" lon="1.18553">
        <ele>158.27</ele>
        <time>2022-08-07T15:00:55Z</time>
      </trkpt>
      <trkpt lat="44.83918" lon="1.18607">
        <ele>156.83</ele>
        <time>2022-08-07T15:01:10Z</time>
      </trkpt>
      <trkpt lat="44.83916" lon="1.18671">
        <ele>160.68</ele>
        <time>2022-08-07T15:01:28Z</time>
      </trkpt>
      <trkpt lat="44.83915" lon="1.18725">
        <ele>162.6</ele>
        <time>2022-08-07T15:01:44Z</time>
      </trkpt>
      <trkpt lat="44.83911" lon="1.18758">
        <ele>160.68</ele>
        <time>2022-08-07T15:01:54Z</time>
      </trkpt>
      <trkpt lat="44.83911" lon="1.18762">
        <ele>160.68</ele>
        <time>2022-08-07T15:01:55Z</time>
      </trkpt>
      <trkpt lat="44.83902" lon="1.18806">
        <ele>163.08</ele>
        <time>2022-08-07T15:02:08Z</time>
      </trkpt>
      <trkpt lat="44.839" lon="1.18833">
        <ele>166.45</ele>
        <time>2022-08-07T15:02:17Z</time>
      </trkpt>
      <trkpt lat="44.839" lon="1.18835">
        <ele>166.45</ele>
        <time>2022-08-07T15:02:18Z</time>
      </trkpt>
      <trkpt lat="44.83899" lon="1.18838">
        <ele>166.93</ele>
        <time>2022-08-07T15:02:19Z</time>
      </trkpt>
      <trkpt lat="44.83898" lon="1.18841">
        <ele>167.41</ele>
        <time>2022-08-07T15:02:20Z</time>
      </trkpt>
      <trkpt lat="44.83897" lon="1.18844">
        <ele>167.41</ele>
        <time>2022-08-07T15:02:21Z</time>
      </trkpt>
      <trkpt lat="44.83896" lon="1.18847">
        <ele>167.89</ele>
        <time>2022-08-07T15:02:22Z</time>
      </trkpt>
      <trkpt lat="44.83886" lon="1.18888">
        <ele>176.54</ele>
        <time>2022-08-07T15:02:36Z</time>
      </trkpt>
      <trkpt lat="44.8387" lon="1.18916">
        <ele>180.38</ele>
        <time>2022-08-07T15:02:49Z</time>
      </trkpt>
      <trkpt lat="44.83842" lon="1.18926">
        <ele>177.5</ele>
        <time>2022-08-07T15:03:01Z</time>
      </trkpt>
      <trkpt lat="44.8384" lon="1.18928">
        <ele>177.5</ele>
        <time>2022-08-07T15:03:02Z</time>
      </trkpt>
      <trkpt lat="44.83825" lon="1.18962">
        <ele>178.94</ele>
        <time>2022-08-07T15:03:14Z</time>
      </trkpt>
      <trkpt lat="44.83825" lon="1.18965">
        <ele>178.94</ele>
        <time>2022-08-07T15:03:15Z</time>
      </trkpt>
      <trkpt lat="44.83824" lon="1.18972">
        <ele>180.38</ele>
        <time>2022-08-07T15:03:18Z</time>
      </trkpt>
      <trkpt lat="44.83824" lon="1.18975">
        <ele>180.38</ele>
        <time>2022-08-07T15:03:19Z</time>
      </trkpt>
      <trkpt lat="44.83822" lon="1.18978">
        <ele>180.87</ele>
        <time>2022-08-07T15:03:20Z</time>
      </trkpt>
      <trkpt lat="44.83822" lon="1.18981">
        <ele>180.87</ele>
        <time>2022-08-07T15:03:21Z</time>
      </trkpt>
      <trkpt lat="44.83821" lon="1.18984">
        <ele>180.87</ele>
        <time>2022-08-07T15:03:22Z</time>
      </trkpt>
      <trkpt lat="44.83801" lon="1.19023">
        <ele>183.27</ele>
        <time>2022-08-07T15:03:37Z</time>
      </trkpt>
      <trkpt lat="44.83769" lon="1.19051">
        <ele>188.08</ele>
        <time>2022-08-07T15:03:54Z</time>
      </trkpt>
      <trkpt lat="44.83732" lon="1.19044">
        <ele>195.77</ele>
        <time>2022-08-07T15:04:13Z</time>
      </trkpt>
      <trkpt lat="44.83707" lon="1.19031">
        <ele>200.57</ele>
        <time>2022-08-07T15:04:26Z</time>
      </trkpt>
      <trkpt lat="44.83683" lon="1.1903">
        <ele>203.94</ele>
        <time>2022-08-07T15:04:38Z</time>
      </trkpt>
      <trkpt lat="44.83659" lon="1.19061">
        <ele>205.38</ele>
        <time>2022-08-07T15:04:53Z</time>
      </trkpt>
      <trkpt lat="44.83645" lon="1.19103">
        <ele>204.9</ele>
        <time>2022-08-07T15:05:08Z</time>
      </trkpt>
      <trkpt lat="44.83623" lon="1.1914">
        <ele>206.34</ele>
        <time>2022-08-07T15:05:23Z</time>
      </trkpt>
      <trkpt lat="44.83599" lon="1.19173">
        <ele>208.26</ele>
        <time>2022-08-07T15:05:39Z</time>
      </trkpt>
      <trkpt lat="44.83591" lon="1.19218">
        <ele>209.22</ele>
        <time>2022-08-07T15:05:54Z</time>
      </trkpt>
      <trkpt lat="44.83597" lon="1.19246">
        <ele>209.7</ele>
        <time>2022-08-07T15:06:04Z</time>
      </trkpt>
      <trkpt lat="44.83598" lon="1.19248">
        <ele>209.7</ele>
        <time>2022-08-07T15:06:05Z</time>
      </trkpt>
      <trkpt lat="44.83622" lon="1.19296">
        <ele>211.15</ele>
        <time>2022-08-07T15:06:24Z</time>
      </trkpt>
      <trkpt lat="44.83641" lon="1.19346">
        <ele>217.88</ele>
        <time>2022-08-07T15:06:42Z</time>
      </trkpt>
      <trkpt lat="44.83653" lon="1.19399">
        <ele>223.16</ele>
        <time>2022-08-07T15:07:00Z</time>
      </trkpt>
      <trkpt lat="44.83653" lon="1.19407">
        <ele>223.16</ele>
        <time>2022-08-07T15:07:13Z</time>
      </trkpt>
      <trkpt lat="44.8365" lon="1.19409">
        <ele>222.68</ele>
        <time>2022-08-07T15:07:42Z</time>
      </trkpt>
      <trkpt lat="44.8365" lon="1.19413">
        <ele>221.72</ele>
        <time>2022-08-07T15:07:58Z</time>
      </trkpt>
      <trkpt lat="44.83651" lon="1.19416">
        <ele>222.2</ele>
        <time>2022-08-07T15:08:00Z</time>
      </trkpt>
      <trkpt lat="44.83652" lon="1.19418">
        <ele>222.2</ele>
        <time>2022-08-07T15:08:01Z</time>
      </trkpt>
      <trkpt lat="44.83653" lon="1.19419">
        <ele>222.2</ele>
        <time>2022-08-07T15:08:02Z</time>
      </trkpt>
      <trkpt lat="44.83653" lon="1.19421">
        <ele>222.2</ele>
        <time>2022-08-07T15:08:03Z</time>
      </trkpt>
      <trkpt lat="44.83654" lon="1.19423">
        <ele>222.2</ele>
        <time>2022-08-07T15:08:04Z</time>
      </trkpt>
      <trkpt lat="44.83655" lon="1.19425">
        <ele>221.72</ele>
        <time>2022-08-07T15:08:05Z</time>
      </trkpt>
      <trkpt lat="44.83691" lon="1.19463">
        <ele>221.24</ele>
        <time>2022-08-07T15:08:17Z</time>
      </trkpt>
      <trkpt lat="44.83699" lon="1.19471">
        <ele>221.24</ele>
        <time>2022-08-07T15:08:19Z</time>
      </trkpt>
      <trkpt lat="44.83703" lon="1.19474">
        <ele>221.24</ele>
        <time>2022-08-07T15:08:20Z</time>
      </trkpt>
      <trkpt lat="44.8375" lon="1.19519">
        <ele>222.2</ele>
        <time>2022-08-07T15:08:34Z</time>
      </trkpt>
      <trkpt lat="44.83791" lon="1.19556">
        <ele>225.57</ele>
        <time>2022-08-07T15:08:50Z</time>
      </trkpt>
      <trkpt lat="44.83821" lon="1.19583">
        <ele>227.97</ele>
        <time>2022-08-07T15:09:03Z</time>
      </trkpt>
      <trkpt lat="44.83849" lon="1.19613">
        <ele>228.93</ele>
        <time>2022-08-07T15:09:15Z</time>
      </trkpt>
      <trkpt lat="44.83883" lon="1.19646">
        <ele>232.78</ele>
        <time>2022-08-07T15:09:29Z</time>
      </trkpt>
      <trkpt lat="44.83911" lon="1.19673">
        <ele>235.18</ele>
        <time>2022-08-07T15:09:42Z</time>
      </trkpt>
      <trkpt lat="44.83923" lon="1.19686">
        <ele>235.66</ele>
        <time>2022-08-07T15:09:46Z</time>
      </trkpt>
      <trkpt lat="44.83926" lon="1.19689">
        <ele>235.66</ele>
        <time>2022-08-07T15:09:47Z</time>
      </trkpt>
      <trkpt lat="44.83977" lon="1.19749">
        <ele>234.22</ele>
        <time>2022-08-07T15:09:57Z</time>
      </trkpt>
      <trkpt lat="44.84076" lon="1.19859">
        <ele>228.45</ele>
        <time>2022-08-07T15:10:10Z</time>
      </trkpt>
      <trkpt lat="44.84144" lon="1.19936">
        <ele>227.49</ele>
        <time>2022-08-07T15:10:23Z</time>
      </trkpt>
      <trkpt lat="44.84203" lon="1.19993">
        <ele>227.01</ele>
        <time>2022-08-07T15:10:41Z</time>
      </trkpt>
      <trkpt lat="44.84251" lon="1.20012">
        <ele>229.41</ele>
        <time>2022-08-07T15:10:56Z</time>
      </trkpt>
      <trkpt lat="44.84291" lon="1.20031">
        <ele>231.33</ele>
        <time>2022-08-07T15:11:10Z</time>
      </trkpt>
      <trkpt lat="44.84335" lon="1.2006">
        <ele>232.78</ele>
        <time>2022-08-07T15:11:26Z</time>
      </trkpt>
      <trkpt lat="44.84399" lon="1.20093">
        <ele>233.26</ele>
        <time>2022-08-07T15:11:45Z</time>
      </trkpt>
      <trkpt lat="44.84445" lon="1.20116">
        <ele>235.18</ele>
        <time>2022-08-07T15:12:00Z</time>
      </trkpt>
      <trkpt lat="44.8449" lon="1.20139">
        <ele>237.1</ele>
        <time>2022-08-07T15:12:15Z</time>
      </trkpt>
      <trkpt lat="44.84538" lon="1.20164">
        <ele>239.51</ele>
        <time>2022-08-07T15:12:31Z</time>
      </trkpt>
      <trkpt lat="44.84602" lon="1.20198">
        <ele>241.43</ele>
        <time>2022-08-07T15:12:51Z</time>
      </trkpt>
      <trkpt lat="44.84659" lon="1.20231">
        <ele>242.39</ele>
        <time>2022-08-07T15:13:09Z</time>
      </trkpt>
      <trkpt lat="44.84718" lon="1.20289">
        <ele>241.43</ele>
        <time>2022-08-07T15:13:27Z</time>
      </trkpt>
      <trkpt lat="44.84779" lon="1.20347">
        <ele>239.02</ele>
        <time>2022-08-07T15:13:41Z</time>
      </trkpt>
      <trkpt lat="44.84785" lon="1.20351">
        <ele>239.02</ele>
        <time>2022-08-07T15:13:42Z</time>
      </trkpt>
      <trkpt lat="44.84869" lon="1.2038">
        <ele>233.26</ele>
        <time>2022-08-07T15:13:53Z</time>
      </trkpt>
      <trkpt lat="44.85003" lon="1.20417">
        <ele>225.09</ele>
        <time>2022-08-07T15:14:07Z</time>
      </trkpt>
      <trkpt lat="44.85084" lon="1.2044">
        <ele>227.01</ele>
        <time>2022-08-07T15:14:19Z</time>
      </trkpt>
      <trkpt lat="44.85089" lon="1.20442">
        <ele>227.49</ele>
        <time>2022-08-07T15:14:20Z</time>
      </trkpt>
      <trkpt lat="44.85118" lon="1.2045">
        <ele>228.45</ele>
        <time>2022-08-07T15:14:26Z</time>
      </trkpt>
      <trkpt lat="44.85208" lon="1.20473">
        <ele>223.64</ele>
        <time>2022-08-07T15:14:40Z</time>
      </trkpt>
      <trkpt lat="44.85328" lon="1.20507">
        <ele>214.99</ele>
        <time>2022-08-07T15:14:54Z</time>
      </trkpt>
      <trkpt lat="44.85383" lon="1.20522">
        <ele>217.88</ele>
        <time>2022-08-07T15:15:05Z</time>
      </trkpt>
      <trkpt lat="44.85462" lon="1.20541">
        <ele>219.32</ele>
        <time>2022-08-07T15:15:20Z</time>
      </trkpt>
      <trkpt lat="44.85541" lon="1.20539">
        <ele>223.64</ele>
        <time>2022-08-07T15:15:35Z</time>
      </trkpt>
      <trkpt lat="44.85572" lon="1.20526">
        <ele>226.05</ele>
        <time>2022-08-07T15:15:42Z</time>
      </trkpt>
      <trkpt lat="44.85597" lon="1.20515">
        <ele>227.49</ele>
        <time>2022-08-07T15:15:48Z</time>
      </trkpt>
      <trkpt lat="44.8565" lon="1.20491">
        <ele>228.45</ele>
        <time>2022-08-07T15:16:00Z</time>
      </trkpt>
      <trkpt lat="44.85734" lon="1.20443">
        <ele>229.89</ele>
        <time>2022-08-07T15:16:18Z</time>
      </trkpt>
      <trkpt lat="44.85743" lon="1.20436">
        <ele>229.89</ele>
        <time>2022-08-07T15:16:20Z</time>
      </trkpt>
      <trkpt lat="44.85801" lon="1.20386">
        <ele>228.45</ele>
        <time>2022-08-07T15:16:33Z</time>
      </trkpt>
      <trkpt lat="44.85828" lon="1.20351">
        <ele>227.01</ele>
        <time>2022-08-07T15:16:38Z</time>
      </trkpt>
      <trkpt lat="44.85831" lon="1.20343">
        <ele>226.53</ele>
        <time>2022-08-07T15:16:39Z</time>
      </trkpt>
      <trkpt lat="44.85836" lon="1.20335">
        <ele>226.53</ele>
        <time>2022-08-07T15:16:40Z</time>
      </trkpt>
      <trkpt lat="44.8584" lon="1.20328">
        <ele>226.53</ele>
        <time>2022-08-07T15:16:41Z</time>
      </trkpt>
      <trkpt lat="44.85845" lon="1.20321">
        <ele>226.53</ele>
        <time>2022-08-07T15:16:42Z</time>
      </trkpt>
      <trkpt lat="44.85901" lon="1.20213">
        <ele>222.2</ele>
        <time>2022-08-07T15:16:54Z</time>
      </trkpt>
      <trkpt lat="44.85908" lon="1.20203">
        <ele>221.24</ele>
        <time>2022-08-07T15:16:55Z</time>
      </trkpt>
      <trkpt lat="44.85916" lon="1.20192">
        <ele>219.8</ele>
        <time>2022-08-07T15:16:56Z</time>
      </trkpt>
      <trkpt lat="44.85925" lon="1.20182">
        <ele>218.84</ele>
        <time>2022-08-07T15:16:57Z</time>
      </trkpt>
      <trkpt lat="44.85935" lon="1.20173">
        <ele>217.4</ele>
        <time>2022-08-07T15:16:58Z</time>
      </trkpt>
      <trkpt lat="44.86026" lon="1.20105">
        <ele>209.22</ele>
        <time>2022-08-07T15:17:06Z</time>
      </trkpt>
      <trkpt lat="44.86039" lon="1.20102">
        <ele>208.26</ele>
        <time>2022-08-07T15:17:07Z</time>
      </trkpt>
      <trkpt lat="44.86054" lon="1.201">
        <ele>206.82</ele>
        <time>2022-08-07T15:17:08Z</time>
      </trkpt>
      <trkpt lat="44.86067" lon="1.20101">
        <ele>205.86</ele>
        <time>2022-08-07T15:17:09Z</time>
      </trkpt>
      <trkpt lat="44.86081" lon="1.20105">
        <ele>204.9</ele>
        <time>2022-08-07T15:17:10Z</time>
      </trkpt>
      <trkpt lat="44.86095" lon="1.2011">
        <ele>203.46</ele>
        <time>2022-08-07T15:17:11Z</time>
      </trkpt>
      <trkpt lat="44.86108" lon="1.20117">
        <ele>202.49</ele>
        <time>2022-08-07T15:17:12Z</time>
      </trkpt>
      <trkpt lat="44.86136" lon="1.20128">
        <ele>200.09</ele>
        <time>2022-08-07T15:17:14Z</time>
      </trkpt>
      <trkpt lat="44.8615" lon="1.20131">
        <ele>198.65</ele>
        <time>2022-08-07T15:17:15Z</time>
      </trkpt>
      <trkpt lat="44.86164" lon="1.20131">
        <ele>197.21</ele>
        <time>2022-08-07T15:17:16Z</time>
      </trkpt>
      <trkpt lat="44.86178" lon="1.2013">
        <ele>195.77</ele>
        <time>2022-08-07T15:17:17Z</time>
      </trkpt>
      <trkpt lat="44.86192" lon="1.20127">
        <ele>194.32</ele>
        <time>2022-08-07T15:17:18Z</time>
      </trkpt>
      <trkpt lat="44.86222" lon="1.20123">
        <ele>191.92</ele>
        <time>2022-08-07T15:17:20Z</time>
      </trkpt>
      <trkpt lat="44.86237" lon="1.20125">
        <ele>190.48</ele>
        <time>2022-08-07T15:17:21Z</time>
      </trkpt>
      <trkpt lat="44.86252" lon="1.20129">
        <ele>189.04</ele>
        <time>2022-08-07T15:17:22Z</time>
      </trkpt>
      <trkpt lat="44.86267" lon="1.20136">
        <ele>187.59</ele>
        <time>2022-08-07T15:17:23Z</time>
      </trkpt>
      <trkpt lat="44.86282" lon="1.20145">
        <ele>186.15</ele>
        <time>2022-08-07T15:17:24Z</time>
      </trkpt>
      <trkpt lat="44.86295" lon="1.20155">
        <ele>184.71</ele>
        <time>2022-08-07T15:17:25Z</time>
      </trkpt>
      <trkpt lat="44.86309" lon="1.20166">
        <ele>183.75</ele>
        <time>2022-08-07T15:17:26Z</time>
      </trkpt>
      <trkpt lat="44.86393" lon="1.20229">
        <ele>175.1</ele>
        <time>2022-08-07T15:17:32Z</time>
      </trkpt>
      <trkpt lat="44.86409" lon="1.20236">
        <ele>173.66</ele>
        <time>2022-08-07T15:17:33Z</time>
      </trkpt>
      <trkpt lat="44.86424" lon="1.2024">
        <ele>172.21</ele>
        <time>2022-08-07T15:17:34Z</time>
      </trkpt>
      <trkpt lat="44.86472" lon="1.20251">
        <ele>167.41</ele>
        <time>2022-08-07T15:17:37Z</time>
      </trkpt>
      <trkpt lat="44.86488" lon="1.20258">
        <ele>165.96</ele>
        <time>2022-08-07T15:17:38Z</time>
      </trkpt>
      <trkpt lat="44.86502" lon="1.20269">
        <ele>164.52</ele>
        <time>2022-08-07T15:17:39Z</time>
      </trkpt>
      <trkpt lat="44.86515" lon="1.20282">
        <ele>163.08</ele>
        <time>2022-08-07T15:17:40Z</time>
      </trkpt>
      <trkpt lat="44.86527" lon="1.20298">
        <ele>161.64</ele>
        <time>2022-08-07T15:17:41Z</time>
      </trkpt>
      <trkpt lat="44.86538" lon="1.20316">
        <ele>160.2</ele>
        <time>2022-08-07T15:17:42Z</time>
      </trkpt>
      <trkpt lat="44.86548" lon="1.20334">
        <ele>158.75</ele>
        <time>2022-08-07T15:17:43Z</time>
      </trkpt>
      <trkpt lat="44.86558" lon="1.20353">
        <ele>157.31</ele>
        <time>2022-08-07T15:17:44Z</time>
      </trkpt>
      <trkpt lat="44.86568" lon="1.2037">
        <ele>155.87</ele>
        <time>2022-08-07T15:17:45Z</time>
      </trkpt>
      <trkpt lat="44.86579" lon="1.20387">
        <ele>154.43</ele>
        <time>2022-08-07T15:17:46Z</time>
      </trkpt>
      <trkpt lat="44.86591" lon="1.20402">
        <ele>152.99</ele>
        <time>2022-08-07T15:17:47Z</time>
      </trkpt>
      <trkpt lat="44.86604" lon="1.20416">
        <ele>151.54</ele>
        <time>2022-08-07T15:17:48Z</time>
      </trkpt>
      <trkpt lat="44.86618" lon="1.20426">
        <ele>149.62</ele>
        <time>2022-08-07T15:17:49Z</time>
      </trkpt>
      <trkpt lat="44.86633" lon="1.20434">
        <ele>148.18</ele>
        <time>2022-08-07T15:17:50Z</time>
      </trkpt>
      <trkpt lat="44.86648" lon="1.2044">
        <ele>146.74</ele>
        <time>2022-08-07T15:17:51Z</time>
      </trkpt>
      <trkpt lat="44.86664" lon="1.20443">
        <ele>145.3</ele>
        <time>2022-08-07T15:17:52Z</time>
      </trkpt>
      <trkpt lat="44.8668" lon="1.20446">
        <ele>143.37</ele>
        <time>2022-08-07T15:17:53Z</time>
      </trkpt>
      <trkpt lat="44.86899" lon="1.20486">
        <ele>127.03</ele>
        <time>2022-08-07T15:18:07Z</time>
      </trkpt>
      <trkpt lat="44.87008" lon="1.20568">
        <ele>123.19</ele>
        <time>2022-08-07T15:18:16Z</time>
      </trkpt>
      <trkpt lat="44.87072" lon="1.20677">
        <ele>122.22</ele>
        <time>2022-08-07T15:18:25Z</time>
      </trkpt>
      <trkpt lat="44.87119" lon="1.20846">
        <ele>120.78</ele>
        <time>2022-08-07T15:18:39Z</time>
      </trkpt>
      <trkpt lat="44.87129" lon="1.20894">
        <ele>120.3</ele>
        <time>2022-08-07T15:18:45Z</time>
      </trkpt>
      <trkpt lat="44.87128" lon="1.20902">
        <ele>120.3</ele>
        <time>2022-08-07T15:18:46Z</time>
      </trkpt>
      <trkpt lat="44.87126" lon="1.2091">
        <ele>119.82</ele>
        <time>2022-08-07T15:18:47Z</time>
      </trkpt>
      <trkpt lat="44.87123" lon="1.20918">
        <ele>119.82</ele>
        <time>2022-08-07T15:18:48Z</time>
      </trkpt>
      <trkpt lat="44.87121" lon="1.20927">
        <ele>119.34</ele>
        <time>2022-08-07T15:18:49Z</time>
      </trkpt>
      <trkpt lat="44.87122" lon="1.20937">
        <ele>119.34</ele>
        <time>2022-08-07T15:18:50Z</time>
      </trkpt>
      <trkpt lat="44.87124" lon="1.20944">
        <ele>119.34</ele>
        <time>2022-08-07T15:18:51Z</time>
      </trkpt>
      <trkpt lat="44.87128" lon="1.2095">
        <ele>119.34</ele>
        <time>2022-08-07T15:18:52Z</time>
      </trkpt>
      <trkpt lat="44.87134" lon="1.20954">
        <ele>119.34</ele>
        <time>2022-08-07T15:18:53Z</time>
      </trkpt>
      <trkpt lat="44.8714" lon="1.20954">
        <ele>119.34</ele>
        <time>2022-08-07T15:18:54Z</time>
      </trkpt>
      <trkpt lat="44.87145" lon="1.20953">
        <ele>119.34</ele>
        <time>2022-08-07T15:18:55Z</time>
      </trkpt>
      <trkpt lat="44.87151" lon="1.20952">
        <ele>119.34</ele>
        <time>2022-08-07T15:18:56Z</time>
      </trkpt>
      <trkpt lat="44.87161" lon="1.2095">
        <ele>119.34</ele>
        <time>2022-08-07T15:18:58Z</time>
      </trkpt>
      <trkpt lat="44.87172" lon="1.20951">
        <ele>119.34</ele>
        <time>2022-08-07T15:19:00Z</time>
      </trkpt>
      <trkpt lat="44.87186" lon="1.20956">
        <ele>119.82</ele>
        <time>2022-08-07T15:19:03Z</time>
      </trkpt>
      <trkpt lat="44.8719" lon="1.20959">
        <ele>119.82</ele>
        <time>2022-08-07T15:19:04Z</time>
      </trkpt>
      <trkpt lat="44.8723" lon="1.21002">
        <ele>123.19</ele>
        <time>2022-08-07T15:19:18Z</time>
      </trkpt>
      <trkpt lat="44.8726" lon="1.21066">
        <ele>128.47</ele>
        <time>2022-08-07T15:19:35Z</time>
      </trkpt>
      <trkpt lat="44.87299" lon="1.21112">
        <ele>131.36</ele>
        <time>2022-08-07T15:19:51Z</time>
      </trkpt>
      <trkpt lat="44.87357" lon="1.21149">
        <ele>132.32</ele>
        <time>2022-08-07T15:20:10Z</time>
      </trkpt>
      <trkpt lat="44.8741" lon="1.21182">
        <ele>134.72</ele>
        <time>2022-08-07T15:20:27Z</time>
      </trkpt>
      <trkpt lat="44.87458" lon="1.21212">
        <ele>137.13</ele>
        <time>2022-08-07T15:20:43Z</time>
      </trkpt>
      <trkpt lat="44.87504" lon="1.21241">
        <ele>139.53</ele>
        <time>2022-08-07T15:20:58Z</time>
      </trkpt>
      <trkpt lat="44.87572" lon="1.21286">
        <ele>141.93</ele>
        <time>2022-08-07T15:21:19Z</time>
      </trkpt>
      <trkpt lat="44.87603" lon="1.21306">
        <ele>141.45</ele>
        <time>2022-08-07T15:21:29Z</time>
      </trkpt>
      <trkpt lat="44.87662" lon="1.21346">
        <ele>138.57</ele>
        <time>2022-08-07T15:21:43Z</time>
      </trkpt>
      <trkpt lat="44.87666" lon="1.21349">
        <ele>138.57</ele>
        <time>2022-08-07T15:21:44Z</time>
      </trkpt>
      <trkpt lat="44.8767" lon="1.21352">
        <ele>138.09</ele>
        <time>2022-08-07T15:21:45Z</time>
      </trkpt>
      <trkpt lat="44.87673" lon="1.21355">
        <ele>138.09</ele>
        <time>2022-08-07T15:21:46Z</time>
      </trkpt>
      <trkpt lat="44.87685" lon="1.21371">
        <ele>137.61</ele>
        <time>2022-08-07T15:21:50Z</time>
      </trkpt>
      <trkpt lat="44.87687" lon="1.21376">
        <ele>137.61</ele>
        <time>2022-08-07T15:21:51Z</time>
      </trkpt>
      <trkpt lat="44.87689" lon="1.2138">
        <ele>138.09</ele>
        <time>2022-08-07T15:21:52Z</time>
      </trkpt>
      <trkpt lat="44.8769" lon="1.21384">
        <ele>138.09</ele>
        <time>2022-08-07T15:21:53Z</time>
      </trkpt>
      <trkpt lat="44.87691" lon="1.21388">
        <ele>138.09</ele>
        <time>2022-08-07T15:21:54Z</time>
      </trkpt>
      <trkpt lat="44.87691" lon="1.21404">
        <ele>138.09</ele>
        <time>2022-08-07T15:21:57Z</time>
      </trkpt>
      <trkpt lat="44.87691" lon="1.21409">
        <ele>138.09</ele>
        <time>2022-08-07T15:21:58Z</time>
      </trkpt>
      <trkpt lat="44.8769" lon="1.21415">
        <ele>138.09</ele>
        <time>2022-08-07T15:21:59Z</time>
      </trkpt>
      <trkpt lat="44.87687" lon="1.21431">
        <ele>137.61</ele>
        <time>2022-08-07T15:22:03Z</time>
      </trkpt>
      <trkpt lat="44.87687" lon="1.21437">
        <ele>137.13</ele>
        <time>2022-08-07T15:22:04Z</time>
      </trkpt>
      <trkpt lat="44.87693" lon="1.21478">
        <ele>134.24</ele>
        <time>2022-08-07T15:22:10Z</time>
      </trkpt>
      <trkpt lat="44.87725" lon="1.216">
        <ele>127.51</ele>
        <time>2022-08-07T15:22:21Z</time>
      </trkpt>
      <trkpt lat="44.87726" lon="1.21613">
        <ele>127.51</ele>
        <time>2022-08-07T15:22:22Z</time>
      </trkpt>
      <trkpt lat="44.87727" lon="1.21626">
        <ele>127.03</ele>
        <time>2022-08-07T15:22:23Z</time>
      </trkpt>
      <trkpt lat="44.87726" lon="1.21675">
        <ele>127.03</ele>
        <time>2022-08-07T15:22:27Z</time>
      </trkpt>
      <trkpt lat="44.87724" lon="1.21682">
        <ele>127.03</ele>
        <time>2022-08-07T15:22:28Z</time>
      </trkpt>
      <trkpt lat="44.87716" lon="1.21708">
        <ele>128.47</ele>
        <time>2022-08-07T15:22:37Z</time>
      </trkpt>
      <trkpt lat="44.8771" lon="1.2175">
        <ele>129.43</ele>
        <time>2022-08-07T15:22:47Z</time>
      </trkpt>
      <trkpt lat="44.87707" lon="1.21806">
        <ele>130.4</ele>
        <time>2022-08-07T15:22:58Z</time>
      </trkpt>
      <trkpt lat="44.87673" lon="1.21897">
        <ele>133.76</ele>
        <time>2022-08-07T15:23:17Z</time>
      </trkpt>
      <trkpt lat="44.87649" lon="1.21963">
        <ele>135.68</ele>
        <time>2022-08-07T15:23:31Z</time>
      </trkpt>
      <trkpt lat="44.87624" lon="1.22032">
        <ele>138.57</ele>
        <time>2022-08-07T15:23:45Z</time>
      </trkpt>
      <trkpt lat="44.87593" lon="1.22113">
        <ele>140.97</ele>
        <time>2022-08-07T15:24:02Z</time>
      </trkpt>
      <trkpt lat="44.87562" lon="1.22195">
        <ele>143.85</ele>
        <time>2022-08-07T15:24:19Z</time>
      </trkpt>
      <trkpt lat="44.87536" lon="1.22274">
        <ele>146.26</ele>
        <time>2022-08-07T15:24:36Z</time>
      </trkpt>
      <trkpt lat="44.87509" lon="1.22344">
        <ele>148.66</ele>
        <time>2022-08-07T15:24:51Z</time>
      </trkpt>
      <trkpt lat="44.87499" lon="1.22444">
        <ele>149.62</ele>
        <time>2022-08-07T15:25:09Z</time>
      </trkpt>
      <trkpt lat="44.87498" lon="1.22554">
        <ele>152.51</ele>
        <time>2022-08-07T15:25:26Z</time>
      </trkpt>
      <trkpt lat="44.87496" lon="1.22681">
        <ele>153.47</ele>
        <time>2022-08-07T15:25:45Z</time>
      </trkpt>
      <trkpt lat="44.87495" lon="1.22708">
        <ele>153.47</ele>
        <time>2022-08-07T15:25:49Z</time>
      </trkpt>
      <trkpt lat="44.87477" lon="1.22859">
        <ele>154.91</ele>
        <time>2022-08-07T15:26:10Z</time>
      </trkpt>
      <trkpt lat="44.87461" lon="1.22982">
        <ele>155.87</ele>
        <time>2022-08-07T15:26:28Z</time>
      </trkpt>
      <trkpt lat="44.87461" lon="1.22989">
        <ele>155.87</ele>
        <time>2022-08-07T15:26:29Z</time>
      </trkpt>
      <trkpt lat="44.87462" lon="1.22996">
        <ele>155.87</ele>
        <time>2022-08-07T15:26:30Z</time>
      </trkpt>
      <trkpt lat="44.87467" lon="1.23027">
        <ele>155.87</ele>
        <time>2022-08-07T15:26:35Z</time>
      </trkpt>
      <trkpt lat="44.87468" lon="1.23033">
        <ele>155.87</ele>
        <time>2022-08-07T15:26:36Z</time>
      </trkpt>
      <trkpt lat="44.87469" lon="1.23052">
        <ele>155.87</ele>
        <time>2022-08-07T15:26:39Z</time>
      </trkpt>
      <trkpt lat="44.87471" lon="1.23059">
        <ele>155.87</ele>
        <time>2022-08-07T15:26:40Z</time>
      </trkpt>
      <trkpt lat="44.87477" lon="1.2307">
        <ele>155.39</ele>
        <time>2022-08-07T15:26:42Z</time>
      </trkpt>
      <trkpt lat="44.87478" lon="1.23077">
        <ele>155.39</ele>
        <time>2022-08-07T15:26:43Z</time>
      </trkpt>
      <trkpt lat="44.87479" lon="1.23085">
        <ele>155.39</ele>
        <time>2022-08-07T15:26:44Z</time>
      </trkpt>
      <trkpt lat="44.8748" lon="1.23093">
        <ele>155.39</ele>
        <time>2022-08-07T15:26:45Z</time>
      </trkpt>
      <trkpt lat="44.8748" lon="1.23101">
        <ele>155.39</ele>
        <time>2022-08-07T15:26:46Z</time>
      </trkpt>
      <trkpt lat="44.87479" lon="1.23109">
        <ele>155.39</ele>
        <time>2022-08-07T15:26:47Z</time>
      </trkpt>
      <trkpt lat="44.87454" lon="1.2324">
        <ele>152.99</ele>
        <time>2022-08-07T15:27:03Z</time>
      </trkpt>
      <trkpt lat="44.87425" lon="1.23355">
        <ele>151.06</ele>
        <time>2022-08-07T15:27:16Z</time>
      </trkpt>
      <trkpt lat="44.87432" lon="1.23514">
        <ele>149.62</ele>
        <time>2022-08-07T15:27:32Z</time>
      </trkpt>
      <trkpt lat="44.87461" lon="1.2365">
        <ele>146.74</ele>
        <time>2022-08-07T15:27:45Z</time>
      </trkpt>
      <trkpt lat="44.87461" lon="1.23661">
        <ele>146.74</ele>
        <time>2022-08-07T15:27:46Z</time>
      </trkpt>
      <trkpt lat="44.8746" lon="1.23672">
        <ele>146.26</ele>
        <time>2022-08-07T15:27:47Z</time>
      </trkpt>
      <trkpt lat="44.87457" lon="1.23683">
        <ele>146.26</ele>
        <time>2022-08-07T15:27:48Z</time>
      </trkpt>
      <trkpt lat="44.87453" lon="1.23693">
        <ele>145.78</ele>
        <time>2022-08-07T15:27:49Z</time>
      </trkpt>
      <trkpt lat="44.87448" lon="1.23701">
        <ele>145.78</ele>
        <time>2022-08-07T15:27:50Z</time>
      </trkpt>
      <trkpt lat="44.87442" lon="1.23709">
        <ele>145.78</ele>
        <time>2022-08-07T15:27:51Z</time>
      </trkpt>
      <trkpt lat="44.87435" lon="1.23714">
        <ele>145.78</ele>
        <time>2022-08-07T15:27:52Z</time>
      </trkpt>
      <trkpt lat="44.87427" lon="1.23717">
        <ele>145.78</ele>
        <time>2022-08-07T15:27:53Z</time>
      </trkpt>
      <trkpt lat="44.87418" lon="1.23718">
        <ele>145.78</ele>
        <time>2022-08-07T15:27:54Z</time>
      </trkpt>
      <trkpt lat="44.87409" lon="1.23717">
        <ele>145.78</ele>
        <time>2022-08-07T15:27:55Z</time>
      </trkpt>
      <trkpt lat="44.874" lon="1.23716">
        <ele>145.78</ele>
        <time>2022-08-07T15:27:56Z</time>
      </trkpt>
      <trkpt lat="44.87391" lon="1.23714">
        <ele>146.26</ele>
        <time>2022-08-07T15:27:57Z</time>
      </trkpt>
      <trkpt lat="44.87296" lon="1.23701">
        <ele>144.34</ele>
        <time>2022-08-07T15:28:07Z</time>
      </trkpt>
      <trkpt lat="44.87287" lon="1.23703">
        <ele>143.85</ele>
        <time>2022-08-07T15:28:08Z</time>
      </trkpt>
      <trkpt lat="44.87279" lon="1.23707">
        <ele>143.37</ele>
        <time>2022-08-07T15:28:09Z</time>
      </trkpt>
      <trkpt lat="44.8727" lon="1.23713">
        <ele>142.89</ele>
        <time>2022-08-07T15:28:10Z</time>
      </trkpt>
      <trkpt lat="44.87261" lon="1.23722">
        <ele>142.41</ele>
        <time>2022-08-07T15:28:11Z</time>
      </trkpt>
      <trkpt lat="44.87255" lon="1.2373">
        <ele>141.93</ele>
        <time>2022-08-07T15:28:12Z</time>
      </trkpt>
      <trkpt lat="44.87249" lon="1.2374">
        <ele>141.45</ele>
        <time>2022-08-07T15:28:13Z</time>
      </trkpt>
      <trkpt lat="44.87244" lon="1.23751">
        <ele>140.97</ele>
        <time>2022-08-07T15:28:14Z</time>
      </trkpt>
      <trkpt lat="44.87239" lon="1.23762">
        <ele>140.49</ele>
        <time>2022-08-07T15:28:15Z</time>
      </trkpt>
      <trkpt lat="44.87215" lon="1.2383">
        <ele>138.09</ele>
        <time>2022-08-07T15:28:21Z</time>
      </trkpt>
      <trkpt lat="44.87213" lon="1.23842">
        <ele>137.61</ele>
        <time>2022-08-07T15:28:22Z</time>
      </trkpt>
      <trkpt lat="44.87212" lon="1.23854">
        <ele>137.13</ele>
        <time>2022-08-07T15:28:23Z</time>
      </trkpt>
      <trkpt lat="44.87212" lon="1.23866">
        <ele>136.16</ele>
        <time>2022-08-07T15:28:24Z</time>
      </trkpt>
      <trkpt lat="44.87213" lon="1.23878">
        <ele>135.68</ele>
        <time>2022-08-07T15:28:25Z</time>
      </trkpt>
      <trkpt lat="44.87213" lon="1.2389">
        <ele>135.2</ele>
        <time>2022-08-07T15:28:26Z</time>
      </trkpt>
      <trkpt lat="44.87215" lon="1.23997">
        <ele>133.28</ele>
        <time>2022-08-07T15:28:35Z</time>
      </trkpt>
      <trkpt lat="44.87213" lon="1.24008">
        <ele>132.8</ele>
        <time>2022-08-07T15:28:36Z</time>
      </trkpt>
      <trkpt lat="44.87209" lon="1.24019">
        <ele>132.32</ele>
        <time>2022-08-07T15:28:37Z</time>
      </trkpt>
      <trkpt lat="44.87205" lon="1.2403">
        <ele>132.32</ele>
        <time>2022-08-07T15:28:38Z</time>
      </trkpt>
      <trkpt lat="44.872" lon="1.2404">
        <ele>131.84</ele>
        <time>2022-08-07T15:28:39Z</time>
      </trkpt>
      <trkpt lat="44.87117" lon="1.24169">
        <ele>129.92</ele>
        <time>2022-08-07T15:28:53Z</time>
      </trkpt>
      <trkpt lat="44.87034" lon="1.24276">
        <ele>128.47</ele>
        <time>2022-08-07T15:29:06Z</time>
      </trkpt>
      <trkpt lat="44.86951" lon="1.2446">
        <ele>126.07</ele>
        <time>2022-08-07T15:29:24Z</time>
      </trkpt>
      <trkpt lat="44.86887" lon="1.24604">
        <ele>124.15</ele>
        <time>2022-08-07T15:29:38Z</time>
      </trkpt>
      <trkpt lat="44.86809" lon="1.24764">
        <ele>121.26</ele>
        <time>2022-08-07T15:29:53Z</time>
      </trkpt>
      <trkpt lat="44.86802" lon="1.24772">
        <ele>121.26</ele>
        <time>2022-08-07T15:29:54Z</time>
      </trkpt>
      <trkpt lat="44.86795" lon="1.24779">
        <ele>121.26</ele>
        <time>2022-08-07T15:29:55Z</time>
      </trkpt>
      <trkpt lat="44.86787" lon="1.24785">
        <ele>120.78</ele>
        <time>2022-08-07T15:29:56Z</time>
      </trkpt>
      <trkpt lat="44.86772" lon="1.24795">
        <ele>120.78</ele>
        <time>2022-08-07T15:29:58Z</time>
      </trkpt>
      <trkpt lat="44.86757" lon="1.24805">
        <ele>120.3</ele>
        <time>2022-08-07T15:30:00Z</time>
      </trkpt>
      <trkpt lat="44.8675" lon="1.24813">
        <ele>120.3</ele>
        <time>2022-08-07T15:30:01Z</time>
      </trkpt>
      <trkpt lat="44.86744" lon="1.24822">
        <ele>119.82</ele>
        <time>2022-08-07T15:30:02Z</time>
      </trkpt>
      <trkpt lat="44.8674" lon="1.24831">
        <ele>119.82</ele>
        <time>2022-08-07T15:30:03Z</time>
      </trkpt>
      <trkpt lat="44.86736" lon="1.2484">
        <ele>119.82</ele>
        <time>2022-08-07T15:30:04Z</time>
      </trkpt>
      <trkpt lat="44.86733" lon="1.2485">
        <ele>119.82</ele>
        <time>2022-08-07T15:30:05Z</time>
      </trkpt>
      <trkpt lat="44.8673" lon="1.2486">
        <ele>119.82</ele>
        <time>2022-08-07T15:30:06Z</time>
      </trkpt>
      <trkpt lat="44.8672" lon="1.24888">
        <ele>120.3</ele>
        <time>2022-08-07T15:30:09Z</time>
      </trkpt>
      <trkpt lat="44.86716" lon="1.24896">
        <ele>120.3</ele>
        <time>2022-08-07T15:30:10Z</time>
      </trkpt>
      <trkpt lat="44.8669" lon="1.24933">
        <ele>121.26</ele>
        <time>2022-08-07T15:30:16Z</time>
      </trkpt>
      <trkpt lat="44.86685" lon="1.24937">
        <ele>121.74</ele>
        <time>2022-08-07T15:30:17Z</time>
      </trkpt>
      <trkpt lat="44.86672" lon="1.24951">
        <ele>122.71</ele>
        <time>2022-08-07T15:30:20Z</time>
      </trkpt>
      <trkpt lat="44.86612" lon="1.25021">
        <ele>127.99</ele>
        <time>2022-08-07T15:30:36Z</time>
      </trkpt>
      <trkpt lat="44.86541" lon="1.251">
        <ele>128.47</ele>
        <time>2022-08-07T15:30:53Z</time>
      </trkpt>
      <trkpt lat="44.86526" lon="1.25117">
        <ele>128.95</ele>
        <time>2022-08-07T15:30:57Z</time>
      </trkpt>
      <trkpt lat="44.86511" lon="1.25142">
        <ele>129.92</ele>
        <time>2022-08-07T15:31:02Z</time>
      </trkpt>
      <trkpt lat="44.86507" lon="1.25153">
        <ele>130.4</ele>
        <time>2022-08-07T15:31:04Z</time>
      </trkpt>
      <trkpt lat="44.86506" lon="1.25159">
        <ele>130.88</ele>
        <time>2022-08-07T15:31:05Z</time>
      </trkpt>
      <trkpt lat="44.86505" lon="1.25165">
        <ele>130.88</ele>
        <time>2022-08-07T15:31:06Z</time>
      </trkpt>
      <trkpt lat="44.86504" lon="1.25171">
        <ele>131.36</ele>
        <time>2022-08-07T15:31:07Z</time>
      </trkpt>
      <trkpt lat="44.86503" lon="1.25177">
        <ele>131.36</ele>
        <time>2022-08-07T15:31:08Z</time>
      </trkpt>
      <trkpt lat="44.86503" lon="1.25184">
        <ele>131.84</ele>
        <time>2022-08-07T15:31:09Z</time>
      </trkpt>
      <trkpt lat="44.86504" lon="1.25196">
        <ele>131.84</ele>
        <time>2022-08-07T15:31:11Z</time>
      </trkpt>
      <trkpt lat="44.86505" lon="1.25203">
        <ele>132.32</ele>
        <time>2022-08-07T15:31:12Z</time>
      </trkpt>
      <trkpt lat="44.86515" lon="1.25291">
        <ele>131.36</ele>
        <time>2022-08-07T15:31:25Z</time>
      </trkpt>
      <trkpt lat="44.86514" lon="1.25298">
        <ele>131.36</ele>
        <time>2022-08-07T15:31:26Z</time>
      </trkpt>
      <trkpt lat="44.86481" lon="1.25397">
        <ele>131.84</ele>
        <time>2022-08-07T15:31:42Z</time>
      </trkpt>
      <trkpt lat="44.86457" lon="1.25457">
        <ele>132.8</ele>
        <time>2022-08-07T15:31:52Z</time>
      </trkpt>
      <trkpt lat="44.86453" lon="1.25461">
        <ele>132.8</ele>
        <time>2022-08-07T15:31:53Z</time>
      </trkpt>
      <trkpt lat="44.86448" lon="1.25463">
        <ele>132.8</ele>
        <time>2022-08-07T15:31:54Z</time>
      </trkpt>
      <trkpt lat="44.86438" lon="1.25467">
        <ele>132.8</ele>
        <time>2022-08-07T15:31:56Z</time>
      </trkpt>
      <trkpt lat="44.86434" lon="1.2547">
        <ele>133.28</ele>
        <time>2022-08-07T15:31:57Z</time>
      </trkpt>
      <trkpt lat="44.8643" lon="1.25475">
        <ele>133.28</ele>
        <time>2022-08-07T15:31:58Z</time>
      </trkpt>
      <trkpt lat="44.86426" lon="1.25481">
        <ele>133.28</ele>
        <time>2022-08-07T15:31:59Z</time>
      </trkpt>
      <trkpt lat="44.86423" lon="1.25487">
        <ele>133.28</ele>
        <time>2022-08-07T15:32:00Z</time>
      </trkpt>
      <trkpt lat="44.86422" lon="1.25494">
        <ele>133.28</ele>
        <time>2022-08-07T15:32:01Z</time>
      </trkpt>
      <trkpt lat="44.86421" lon="1.25501">
        <ele>133.28</ele>
        <time>2022-08-07T15:32:02Z</time>
      </trkpt>
      <trkpt lat="44.86421" lon="1.25508">
        <ele>133.28</ele>
        <time>2022-08-07T15:32:03Z</time>
      </trkpt>
      <trkpt lat="44.86422" lon="1.25515">
        <ele>133.28</ele>
        <time>2022-08-07T15:32:04Z</time>
      </trkpt>
      <trkpt lat="44.86423" lon="1.25523">
        <ele>133.28</ele>
        <time>2022-08-07T15:32:05Z</time>
      </trkpt>
      <trkpt lat="44.86425" lon="1.2553">
        <ele>132.8</ele>
        <time>2022-08-07T15:32:06Z</time>
      </trkpt>
      <trkpt lat="44.86426" lon="1.25537">
        <ele>133.28</ele>
        <time>2022-08-07T15:32:07Z</time>
      </trkpt>
      <trkpt lat="44.86426" lon="1.25545">
        <ele>133.28</ele>
        <time>2022-08-07T15:32:08Z</time>
      </trkpt>
      <trkpt lat="44.86426" lon="1.25551">
        <ele>133.28</ele>
        <time>2022-08-07T15:32:09Z</time>
      </trkpt>
      <trkpt lat="44.8639" lon="1.25674">
        <ele>134.24</ele>
        <time>2022-08-07T15:32:26Z</time>
      </trkpt>
      <trkpt lat="44.86341" lon="1.25824">
        <ele>134.24</ele>
        <time>2022-08-07T15:32:46Z</time>
      </trkpt>
      <trkpt lat="44.86305" lon="1.25959">
        <ele>132.8</ele>
        <time>2022-08-07T15:33:02Z</time>
      </trkpt>
      <trkpt lat="44.8629" lon="1.26109">
        <ele>129.43</ele>
        <time>2022-08-07T15:33:17Z</time>
      </trkpt>
      <trkpt lat="44.86283" lon="1.26256">
        <ele>129.43</ele>
        <time>2022-08-07T15:33:33Z</time>
      </trkpt>
      <trkpt lat="44.86264" lon="1.26409">
        <ele>131.84</ele>
        <time>2022-08-07T15:33:52Z</time>
      </trkpt>
      <trkpt lat="44.86259" lon="1.26499">
        <ele>132.8</ele>
        <time>2022-08-07T15:34:03Z</time>
      </trkpt>
      <trkpt lat="44.8626" lon="1.26507">
        <ele>132.8</ele>
        <time>2022-08-07T15:34:04Z</time>
      </trkpt>
      <trkpt lat="44.86262" lon="1.26523">
        <ele>133.28</ele>
        <time>2022-08-07T15:34:06Z</time>
      </trkpt>
      <trkpt lat="44.86271" lon="1.26554">
        <ele>133.28</ele>
        <time>2022-08-07T15:34:10Z</time>
      </trkpt>
      <trkpt lat="44.86301" lon="1.26604">
        <ele>134.24</ele>
        <time>2022-08-07T15:34:18Z</time>
      </trkpt>
      <trkpt lat="44.86307" lon="1.26609">
        <ele>134.24</ele>
        <time>2022-08-07T15:34:19Z</time>
      </trkpt>
      <trkpt lat="44.86399" lon="1.26688">
        <ele>129.92</ele>
        <time>2022-08-07T15:34:34Z</time>
      </trkpt>
      <trkpt lat="44.86409" lon="1.26703">
        <ele>129.92</ele>
        <time>2022-08-07T15:34:36Z</time>
      </trkpt>
      <trkpt lat="44.86448" lon="1.26778">
        <ele>127.99</ele>
        <time>2022-08-07T15:34:45Z</time>
      </trkpt>
      <trkpt lat="44.86454" lon="1.26784">
        <ele>127.99</ele>
        <time>2022-08-07T15:34:46Z</time>
      </trkpt>
      <trkpt lat="44.8646" lon="1.26789">
        <ele>127.99</ele>
        <time>2022-08-07T15:34:47Z</time>
      </trkpt>
      <trkpt lat="44.86474" lon="1.26795">
        <ele>127.51</ele>
        <time>2022-08-07T15:34:49Z</time>
      </trkpt>
      <trkpt lat="44.86482" lon="1.26797">
        <ele>127.51</ele>
        <time>2022-08-07T15:34:50Z</time>
      </trkpt>
      <trkpt lat="44.86521" lon="1.26796">
        <ele>127.03</ele>
        <time>2022-08-07T15:34:55Z</time>
      </trkpt>
      <trkpt lat="44.86529" lon="1.26793">
        <ele>127.03</ele>
        <time>2022-08-07T15:34:56Z</time>
      </trkpt>
      <trkpt lat="44.86582" lon="1.2678">
        <ele>126.07</ele>
        <time>2022-08-07T15:35:03Z</time>
      </trkpt>
      <trkpt lat="44.8659" lon="1.26781">
        <ele>126.07</ele>
        <time>2022-08-07T15:35:04Z</time>
      </trkpt>
      <trkpt lat="44.86596" lon="1.26783">
        <ele>126.07</ele>
        <time>2022-08-07T15:35:05Z</time>
      </trkpt>
      <trkpt lat="44.86611" lon="1.26791">
        <ele>126.07</ele>
        <time>2022-08-07T15:35:07Z</time>
      </trkpt>
      <trkpt lat="44.86696" lon="1.26872">
        <ele>121.74</ele>
        <time>2022-08-07T15:35:19Z</time>
      </trkpt>
      <trkpt lat="44.86759" lon="1.27006">
        <ele>115.98</ele>
        <time>2022-08-07T15:35:32Z</time>
      </trkpt>
      <trkpt lat="44.86793" lon="1.27169">
        <ele>111.17</ele>
        <time>2022-08-07T15:35:45Z</time>
      </trkpt>
      <trkpt lat="44.86813" lon="1.27257">
        <ele>108.77</ele>
        <time>2022-08-07T15:35:52Z</time>
      </trkpt>
      <trkpt lat="44.86814" lon="1.2727">
        <ele>108.77</ele>
        <time>2022-08-07T15:35:53Z</time>
      </trkpt>
      <trkpt lat="44.86813" lon="1.27282">
        <ele>108.29</ele>
        <time>2022-08-07T15:35:54Z</time>
      </trkpt>
      <trkpt lat="44.86812" lon="1.27295">
        <ele>107.81</ele>
        <time>2022-08-07T15:35:55Z</time>
      </trkpt>
      <trkpt lat="44.86809" lon="1.27307">
        <ele>107.81</ele>
        <time>2022-08-07T15:35:56Z</time>
      </trkpt>
      <trkpt lat="44.86805" lon="1.27318">
        <ele>107.32</ele>
        <time>2022-08-07T15:35:57Z</time>
      </trkpt>
      <trkpt lat="44.86802" lon="1.27329">
        <ele>106.84</ele>
        <time>2022-08-07T15:35:58Z</time>
      </trkpt>
      <trkpt lat="44.86797" lon="1.2734">
        <ele>106.36</ele>
        <time>2022-08-07T15:35:59Z</time>
      </trkpt>
      <trkpt lat="44.86731" lon="1.2748">
        <ele>99.15</ele>
        <time>2022-08-07T15:36:12Z</time>
      </trkpt>
      <trkpt lat="44.86686" lon="1.2758">
        <ele>94.83</ele>
        <time>2022-08-07T15:36:20Z</time>
      </trkpt>
      <trkpt lat="44.86682" lon="1.27595">
        <ele>94.35</ele>
        <time>2022-08-07T15:36:21Z</time>
      </trkpt>
      <trkpt lat="44.86679" lon="1.2761">
        <ele>93.87</ele>
        <time>2022-08-07T15:36:22Z</time>
      </trkpt>
      <trkpt lat="44.86678" lon="1.27626">
        <ele>93.39</ele>
        <time>2022-08-07T15:36:23Z</time>
      </trkpt>
      <trkpt lat="44.86679" lon="1.27642">
        <ele>92.9</ele>
        <time>2022-08-07T15:36:24Z</time>
      </trkpt>
      <trkpt lat="44.86682" lon="1.27657">
        <ele>92.42</ele>
        <time>2022-08-07T15:36:25Z</time>
      </trkpt>
      <trkpt lat="44.86686" lon="1.27672">
        <ele>91.94</ele>
        <time>2022-08-07T15:36:26Z</time>
      </trkpt>
      <trkpt lat="44.86691" lon="1.27686">
        <ele>91.46</ele>
        <time>2022-08-07T15:36:27Z</time>
      </trkpt>
      <trkpt lat="44.86697" lon="1.277">
        <ele>90.98</ele>
        <time>2022-08-07T15:36:28Z</time>
      </trkpt>
      <trkpt lat="44.86702" lon="1.27712">
        <ele>90.5</ele>
        <time>2022-08-07T15:36:29Z</time>
      </trkpt>
      <trkpt lat="44.86762" lon="1.27848">
        <ele>88.58</ele>
        <time>2022-08-07T15:36:41Z</time>
      </trkpt>
      <trkpt lat="44.86806" lon="1.27947">
        <ele>89.54</ele>
        <time>2022-08-07T15:36:53Z</time>
      </trkpt>
      <trkpt lat="44.86827" lon="1.28056">
        <ele>90.5</ele>
        <time>2022-08-07T15:37:06Z</time>
      </trkpt>
      <trkpt lat="44.86823" lon="1.28206">
        <ele>90.5</ele>
        <time>2022-08-07T15:37:23Z</time>
      </trkpt>
      <trkpt lat="44.86816" lon="1.2834">
        <ele>90.5</ele>
        <time>2022-08-07T15:37:39Z</time>
      </trkpt>
      <trkpt lat="44.86814" lon="1.28382">
        <ele>91.46</ele>
        <time>2022-08-07T15:37:44Z</time>
      </trkpt>
      <trkpt lat="44.86814" lon="1.28391">
        <ele>91.46</ele>
        <time>2022-08-07T15:37:45Z</time>
      </trkpt>
      <trkpt lat="44.86806" lon="1.28568">
        <ele>93.39</ele>
        <time>2022-08-07T15:38:06Z</time>
      </trkpt>
      <trkpt lat="44.868" lon="1.28693">
        <ele>94.83</ele>
        <time>2022-08-07T15:38:21Z</time>
      </trkpt>
      <trkpt lat="44.86792" lon="1.28857">
        <ele>95.31</ele>
        <time>2022-08-07T15:38:40Z</time>
      </trkpt>
      <trkpt lat="44.86764" lon="1.28991">
        <ele>95.79</ele>
        <time>2022-08-07T15:38:57Z</time>
      </trkpt>
      <trkpt lat="44.8675" lon="1.29026">
        <ele>96.75</ele>
        <time>2022-08-07T15:39:02Z</time>
      </trkpt>
      <trkpt lat="44.86682" lon="1.29135">
        <ele>99.63</ele>
        <time>2022-08-07T15:39:20Z</time>
      </trkpt>
      <trkpt lat="44.86594" lon="1.29227">
        <ele>102.52</ele>
        <time>2022-08-07T15:39:38Z</time>
      </trkpt>
      <trkpt lat="44.86522" lon="1.29292">
        <ele>104.92</ele>
        <time>2022-08-07T15:39:52Z</time>
      </trkpt>
      <trkpt lat="44.86441" lon="1.29364">
        <ele>107.81</ele>
        <time>2022-08-07T15:40:09Z</time>
      </trkpt>
      <trkpt lat="44.86366" lon="1.29432">
        <ele>107.32</ele>
        <time>2022-08-07T15:40:24Z</time>
      </trkpt>
      <trkpt lat="44.86284" lon="1.29492">
        <ele>105.88</ele>
        <time>2022-08-07T15:40:40Z</time>
      </trkpt>
      <trkpt lat="44.86273" lon="1.29502">
        <ele>105.88</ele>
        <time>2022-08-07T15:40:44Z</time>
      </trkpt>
      <trkpt lat="44.86272" lon="1.29508">
        <ele>105.88</ele>
        <time>2022-08-07T15:40:45Z</time>
      </trkpt>
      <trkpt lat="44.86272" lon="1.29514">
        <ele>105.88</ele>
        <time>2022-08-07T15:40:46Z</time>
      </trkpt>
      <trkpt lat="44.86272" lon="1.29523">
        <ele>105.88</ele>
        <time>2022-08-07T15:40:47Z</time>
      </trkpt>
      <trkpt lat="44.86273" lon="1.29533">
        <ele>105.4</ele>
        <time>2022-08-07T15:40:48Z</time>
      </trkpt>
      <trkpt lat="44.86277" lon="1.29569">
        <ele>103.48</ele>
        <time>2022-08-07T15:40:51Z</time>
      </trkpt>
      <trkpt lat="44.86281" lon="1.29581">
        <ele>103</ele>
        <time>2022-08-07T15:40:52Z</time>
      </trkpt>
      <trkpt lat="44.86322" lon="1.29712">
        <ele>103</ele>
        <time>2022-08-07T15:41:04Z</time>
      </trkpt>
      <trkpt lat="44.86346" lon="1.29778">
        <ele>106.36</ele>
        <time>2022-08-07T15:41:16Z</time>
      </trkpt>
      <trkpt lat="44.86349" lon="1.29781">
        <ele>106.84</ele>
        <time>2022-08-07T15:41:17Z</time>
      </trkpt>
      <trkpt lat="44.86353" lon="1.29783">
        <ele>107.32</ele>
        <time>2022-08-07T15:41:18Z</time>
      </trkpt>
      <trkpt lat="44.86358" lon="1.29783">
        <ele>107.32</ele>
        <time>2022-08-07T15:41:19Z</time>
      </trkpt>
      <trkpt lat="44.86362" lon="1.29782">
        <ele>107.81</ele>
        <time>2022-08-07T15:41:20Z</time>
      </trkpt>
      <trkpt lat="44.86367" lon="1.29781">
        <ele>107.81</ele>
        <time>2022-08-07T15:41:21Z</time>
      </trkpt>
      <trkpt lat="44.86371" lon="1.29779">
        <ele>108.29</ele>
        <time>2022-08-07T15:41:22Z</time>
      </trkpt>
      <trkpt lat="44.86374" lon="1.29777">
        <ele>108.29</ele>
        <time>2022-08-07T15:41:23Z</time>
      </trkpt>
      <trkpt lat="44.86377" lon="1.29775">
        <ele>108.77</ele>
        <time>2022-08-07T15:41:24Z</time>
      </trkpt>
      <trkpt lat="44.8639" lon="1.29771">
        <ele>109.73</ele>
        <time>2022-08-07T15:41:29Z</time>
      </trkpt>
      <trkpt lat="44.86392" lon="1.29772">
        <ele>109.73</ele>
        <time>2022-08-07T15:41:30Z</time>
      </trkpt>
      <trkpt lat="44.86395" lon="1.29773">
        <ele>109.73</ele>
        <time>2022-08-07T15:41:31Z</time>
      </trkpt>
      <trkpt lat="44.86397" lon="1.29775">
        <ele>109.73</ele>
        <time>2022-08-07T15:41:32Z</time>
      </trkpt>
      <trkpt lat="44.86398" lon="1.29776">
        <ele>109.73</ele>
        <time>2022-08-07T15:41:33Z</time>
      </trkpt>
      <trkpt lat="44.864" lon="1.29778">
        <ele>109.73</ele>
        <time>2022-08-07T15:41:34Z</time>
      </trkpt>
      <trkpt lat="44.86402" lon="1.2978">
        <ele>109.73</ele>
        <time>2022-08-07T15:41:35Z</time>
      </trkpt>
      <trkpt lat="44.86403" lon="1.29783">
        <ele>109.73</ele>
        <time>2022-08-07T15:41:36Z</time>
      </trkpt>
      <trkpt lat="44.86404" lon="1.29786">
        <ele>109.25</ele>
        <time>2022-08-07T15:41:37Z</time>
      </trkpt>
      <trkpt lat="44.86406" lon="1.2979">
        <ele>109.25</ele>
        <time>2022-08-07T15:41:38Z</time>
      </trkpt>
      <trkpt lat="44.86408" lon="1.29793">
        <ele>108.77</ele>
        <time>2022-08-07T15:41:39Z</time>
      </trkpt>
      <trkpt lat="44.8641" lon="1.29796">
        <ele>108.77</ele>
        <time>2022-08-07T15:41:40Z</time>
      </trkpt>
      <trkpt lat="44.86411" lon="1.29799">
        <ele>108.77</ele>
        <time>2022-08-07T15:41:41Z</time>
      </trkpt>
      <trkpt lat="44.86431" lon="1.29833">
        <ele>106.36</ele>
        <time>2022-08-07T15:41:52Z</time>
      </trkpt>
      <trkpt lat="44.8645" lon="1.29873">
        <ele>105.4</ele>
        <time>2022-08-07T15:42:03Z</time>
      </trkpt>
      <trkpt lat="44.86461" lon="1.29927">
        <ele>103.96</ele>
        <time>2022-08-07T15:42:19Z</time>
      </trkpt>
      <trkpt lat="44.86449" lon="1.29964">
        <ele>104.44</ele>
        <time>2022-08-07T15:42:30Z</time>
      </trkpt>
      <trkpt lat="44.8647" lon="1.30025">
        <ele>106.36</ele>
        <time>2022-08-07T15:42:47Z</time>
      </trkpt>
      <trkpt lat="44.86472" lon="1.30033">
        <ele>106.84</ele>
        <time>2022-08-07T15:42:50Z</time>
      </trkpt>
      <trkpt lat="44.86472" lon="1.30036">
        <ele>107.81</ele>
        <time>2022-08-07T15:43:01Z</time>
      </trkpt>
    </trkseg>
  </trk>
</gpx>